Wetterdaten: Mittwoch, 26.01.2022
Datum Zeit Temp. Aussen Temp. o. S. Temp +5cm Feuchte Auss Luftdruck Regen Sonnenschein Regendauer Solar Windben Empfang
26.01.2022 00:00 3,0 C 2,2 C -0,6 C 86 % 1033,3 hPa 0,0 l/m 0 min 0 min 0 W/m 3,2 km/h (1 Bft) 100,00 %
26.01.2022 00:02 3,0 C 2,2 C -0,6 C 86 % 1033,3 hPa 0,0 l/m 0 min 0 min 0 W/m 3,2 km/h (1 Bft) 100,00 %
26.01.2022 00:04 3,0 C 2,2 C -0,6 C 86 % 1033,3 hPa 0,0 l/m 0 min 0 min 0 W/m 3,2 km/h (1 Bft) 100,00 %
26.01.2022 00:08 3,0 C 2,2 C -0,6 C 86 % 1033,3 hPa 0,0 l/m 0 min 0 min 0 W/m 6,4 km/h (2 Bft) 100,00 %
26.01.2022 00:10 2,9 C 2,2 C -0,6 C 86 % 1033,3 hPa 0,0 l/m 0 min 0 min 0 W/m 3,2 km/h (1 Bft) 100,00 %
26.01.2022 00:12 2,9 C 2,2 C -0,6 C 86 % 1033,3 hPa 0,0 l/m 0 min 0 min 0 W/m 3,2 km/h (1 Bft) 100,00 %
26.01.2022 00:14 2,9 C 2,2 C -0,6 C 86 % 1033,3 hPa 0,0 l/m 0 min 0 min 0 W/m 3,2 km/h (1 Bft) 100,00 %
26.01.2022 00:16 2,9 C 2,2 C -0,6 C 86 % 1033,3 hPa 0,0 l/m 0 min 0 min 0 W/m 0,0 km/h (0 Bft) 100,00 %
26.01.2022 00:18 2,9 C 2,2 C -0,6 C 86 % 1033,3 hPa 0,0 l/m 0 min 0 min 0 W/m 3,2 km/h (1 Bft) 100,00 %
26.01.2022 00:20 2,9 C 2,2 C -0,6 C 86 % 1033,3 hPa 0,0 l/m 0 min 0 min 0 W/m 0,0 km/h (0 Bft) 100,00 %
26.01.2022 00:22 2,9 C 2,2 C -0,6 C 86 % 1033,4 hPa 0,0 l/m 0 min 0 min 0 W/m 0,0 km/h (0 Bft) 97,87 %
26.01.2022 00:24 2,9 C 2,2 C -0,6 C 86 % 1033,4 hPa 0,0 l/m 0 min 0 min 0 W/m 0,0 km/h (0 Bft) 100,00 %
26.01.2022 00:26 2,9 C 2,2 C -0,6 C 86 % 1033,5 hPa 0,0 l/m 0 min 0 min 0 W/m 0,0 km/h (0 Bft) 100,00 %
26.01.2022 00:28 2,9 C 2,2 C -0,6 C 86 % 1033,5 hPa 0,0 l/m 0 min 0 min 0 W/m 3,2 km/h (1 Bft) 100,00 %
26.01.2022 00:30 2,9 C 2,2 C -0,6 C 86 % 1033,6 hPa 0,0 l/m 0 min 0 min 0 W/m 0,0 km/h (0 Bft) 97,22 %
26.01.2022 00:32 2,9 C 2,2 C -0,6 C 86 % 1033,5 hPa 0,0 l/m 0 min 0 min 0 W/m 3,2 km/h (1 Bft) 95,65 %
26.01.2022 00:34 2,9 C 2,2 C -0,6 C 86 % 1033,5 hPa 0,0 l/m 0 min 0 min 0 W/m 3,2 km/h (1 Bft) 96,61 %
26.01.2022 00:36 2,9 C 2,2 C -0,6 C 87 % 1033,6 hPa 0,0 l/m 0 min 0 min 0 W/m 3,2 km/h (1 Bft) 93,62 %
26.01.2022 00:38 2,9 C 2,2 C -0,6 C 87 % 1033,6 hPa 0,0 l/m 0 min 0 min 0 W/m 3,2 km/h (1 Bft) 100,00 %
26.01.2022 00:40 2,9 C 2,2 C -0,6 C 87 % 1033,7 hPa 0,0 l/m 0 min 0 min 0 W/m 3,2 km/h (1 Bft) 95,74 %
26.01.2022 00:42 2,9 C 2,2 C -0,6 C 87 % 1033,7 hPa 0,0 l/m 0 min 0 min 0 W/m 3,2 km/h (1 Bft) 97,87 %
26.01.2022 00:44 2,9 C 2,2 C -0,6 C 87 % 1033,6 hPa 0,0 l/m 0 min 0 min 0 W/m 3,2 km/h (1 Bft) 93,62 %
26.01.2022 00:46 2,9 C 2,2 C -0,6 C 87 % 1033,6 hPa 0,0 l/m 0 min 0 min 0 W/m 6,4 km/h (2 Bft) 95,74 %
26.01.2022 00:48 2,9 C 2,2 C -0,6 C 87 % 1033,6 hPa 0,0 l/m 0 min 0 min 0 W/m 3,2 km/h (1 Bft) 95,74 %
26.01.2022 00:50 2,9 C 2,2 C -0,6 C 87 % 1033,6 hPa 0,0 l/m 0 min 0 min 0 W/m 3,2 km/h (1 Bft) 95,74 %
26.01.2022 00:52 2,9 C 2,2 C -0,6 C 87 % 1033,6 hPa 0,0 l/m 0 min 0 min 0 W/m 3,2 km/h (1 Bft) 82,98 %
26.01.2022 00:54 2,9 C 2,2 C -0,6 C 87 % 1033,6 hPa 0,0 l/m 0 min 0 min 0 W/m 3,2 km/h (1 Bft) 68,18 %
26.01.2022 00:56 2,9 C 2,2 C -0,6 C 87 % 1033,6 hPa 0,0 l/m 0 min 0 min 0 W/m 3,2 km/h (1 Bft) 93,62 %
26.01.2022 00:58 2,9 C 2,2 C -0,6 C 87 % 1033,6 hPa 0,0 l/m 0 min 0 min 0 W/m 3,2 km/h (1 Bft) 95,74 %
26.01.2022 01:00 2,9 C 2,2 C -0,6 C 87 % 1033,6 hPa 0,0 l/m 0 min 0 min 0 W/m 3,2 km/h (1 Bft) 97,87 %
26.01.2022 01:02 2,9 C 2,2 C -0,6 C 87 % 1033,6 hPa 0,0 l/m 0 min 0 min 0 W/m 3,2 km/h (1 Bft) 95,83 %
26.01.2022 01:04 2,9 C 2,2 C -0,6 C 87 % 1033,5 hPa 0,0 l/m 0 min 0 min 0 W/m 9,7 km/h (2 Bft) 95,74 %
26.01.2022 01:06 2,9 C 2,2 C -0,6 C 87 % 1033,5 hPa 0,0 l/m 0 min 0 min 0 W/m 3,2 km/h (1 Bft) 97,83 %
26.01.2022 01:08 2,9 C 2,2 C -0,6 C 87 % 1033,5 hPa 0,0 l/m 0 min 0 min 0 W/m 3,2 km/h (1 Bft) 89,58 %
26.01.2022 01:10 2,9 C 2,2 C -0,6 C 87 % 1033,5 hPa 0,0 l/m 0 min 0 min 0 W/m 3,2 km/h (1 Bft) 93,62 %
26.01.2022 01:12 2,9 C 2,2 C -0,6 C 87 % 1033,5 hPa 0,0 l/m 0 min 0 min 0 W/m 12,9 km/h (3 Bft) 93,62 %
26.01.2022 01:14 2,9 C 2,2 C -0,6 C 87 % 1033,6 hPa 0,0 l/m 0 min 0 min 0 W/m 9,7 km/h (2 Bft) 97,87 %
26.01.2022 01:16 2,9 C 2,2 C -0,6 C 87 % 1033,6 hPa 0,0 l/m 0 min 0 min 0 W/m 6,4 km/h (2 Bft) 95,74 %
26.01.2022 01:18 2,9 C 2,2 C -0,6 C 87 % 1033,5 hPa 0,0 l/m 0 min 0 min 0 W/m 3,2 km/h (1 Bft) 95,65 %
26.01.2022 01:20 2,9 C 2,2 C -0,6 C 87 % 1033,5 hPa 0,0 l/m 0 min 0 min 0 W/m 3,2 km/h (1 Bft) 93,62 %
26.01.2022 01:22 2,9 C 2,2 C -0,6 C 87 % 1033,4 hPa 0,0 l/m 0 min 0 min 0 W/m 6,4 km/h (2 Bft) 95,74 %
26.01.2022 01:24 2,8 C 2,2 C -0,6 C 87 % 1033,4 hPa 0,0 l/m 0 min 0 min 0 W/m 3,2 km/h (1 Bft) 97,87 %
26.01.2022 01:26 2,9 C 2,2 C -0,6 C 87 % 1033,5 hPa 0,0 l/m 0 min 0 min 0 W/m 3,2 km/h (1 Bft) 97,87 %
26.01.2022 01:28 2,9 C 2,2 C -0,6 C 87 % 1033,6 hPa 0,0 l/m 0 min 0 min 0 W/m 6,4 km/h (2 Bft) 97,87 %
26.01.2022 01:30 2,8 C 2,2 C -0,6 C 87 % 1033,7 hPa 0,0 l/m 0 min 0 min 0 W/m 6,4 km/h (2 Bft) 95,65 %
26.01.2022 01:32 2,8 C 2,2 C -0,6 C 87 % 1033,6 hPa 0,0 l/m 0 min 0 min 0 W/m 6,4 km/h (2 Bft) 97,87 %
26.01.2022 01:34 2,8 C 2,2 C -0,6 C 87 % 1033,5 hPa 0,0 l/m 0 min 0 min 0 W/m 9,7 km/h (2 Bft) 97,87 %
26.01.2022 01:36 2,8 C 2,2 C -0,6 C 87 % 1033,5 hPa 0,0 l/m 0 min 0 min 0 W/m 6,4 km/h (2 Bft) 97,87 %
26.01.2022 01:38 2,8 C 2,2 C -0,6 C 87 % 1033,5 hPa 0,0 l/m 0 min 0 min 0 W/m 9,7 km/h (2 Bft) 93,62 %
26.01.2022 01:40 2,7 C 2,2 C -0,6 C 87 % 1033,5 hPa 0,0 l/m 0 min 0 min 0 W/m 6,4 km/h (2 Bft) 93,62 %
26.01.2022 01:42 2,7 C 2,2 C -0,6 C 87 % 1033,4 hPa 0,0 l/m 0 min 0 min 0 W/m 3,2 km/h (1 Bft) 97,87 %
26.01.2022 01:44 2,7 C 2,2 C -0,6 C 87 % 1033,4 hPa 0,0 l/m 0 min 0 min 0 W/m 3,2 km/h (1 Bft) 95,74 %
26.01.2022 01:46 2,7 C 2,2 C -0,6 C 87 % 1033,4 hPa 0,0 l/m 0 min 0 min 0 W/m 3,2 km/h (1 Bft) 95,74 %
26.01.2022 01:48 2,7 C 2,2 C -0,6 C 87 % 1033,4 hPa 0,0 l/m 0 min 0 min 0 W/m 3,2 km/h (1 Bft) 97,87 %
26.01.2022 01:50 2,7 C 2,2 C -0,6 C 87 % 1033,4 hPa 0,0 l/m 0 min 0 min 0 W/m 3,2 km/h (1 Bft) 97,87 %
26.01.2022 01:52 2,7 C 2,2 C -0,6 C 87 % 1033,5 hPa 0,0 l/m 0 min 0 min 0 W/m 3,2 km/h (1 Bft) 97,87 %
26.01.2022 01:54 2,7 C 2,2 C -0,6 C 87 % 1033,5 hPa 0,0 l/m 0 min 0 min 0 W/m 3,2 km/h (1 Bft) 97,83 %
26.01.2022 01:56 2,7 C 2,2 C -0,6 C 87 % 1033,5 hPa 0,0 l/m 0 min 0 min 0 W/m 3,2 km/h (1 Bft) 97,87 %
26.01.2022 01:58 2,7 C 2,2 C -0,6 C 88 % 1033,5 hPa 0,0 l/m 0 min 0 min 0 W/m 6,4 km/h (2 Bft) 97,87 %
26.01.2022 02:00 2,7 C 2,2 C -0,6 C 88 % 1033,5 hPa 0,0 l/m 0 min 0 min 0 W/m 6,4 km/h (2 Bft) 97,87 %
26.01.2022 02:02 2,7 C 2,2 C -0,6 C 88 % 1033,4 hPa 0,0 l/m 0 min 0 min 0 W/m 9,7 km/h (2 Bft) 100,00 %
26.01.2022 02:04 2,7 C 2,2 C -0,6 C 87 % 1033,4 hPa 0,0 l/m 0 min 0 min 0 W/m 6,4 km/h (2 Bft) 100,00 %
26.01.2022 02:06 2,7 C 2,2 C -0,6 C 87 % 1033,4 hPa 0,0 l/m 0 min 0 min 0 W/m 6,4 km/h (2 Bft) 100,00 %
26.01.2022 02:08 2,7 C 2,2 C -0,6 C 88 % 1033,4 hPa 0,0 l/m 0 min 0 min 0 W/m 9,7 km/h (2 Bft) 100,00 %
26.01.2022 02:10 2,6 C 2,2 C -0,6 C 87 % 1033,4 hPa 0,0 l/m 0 min 0 min 0 W/m 12,9 km/h (3 Bft) 100,00 %
26.01.2022 02:12 2,6 C 2,2 C -0,6 C 87 % 1033,4 hPa 0,0 l/m 0 min 0 min 0 W/m 12,9 km/h (3 Bft) 100,00 %
26.01.2022 02:14 2,6 C 2,2 C -0,6 C 87 % 1033,5 hPa 0,0 l/m 0 min 0 min 0 W/m 6,4 km/h (2 Bft) 97,87 %
26.01.2022 02:16 2,6 C 2,2 C -0,6 C 87 % 1033,4 hPa 0,0 l/m 0 min 0 min 0 W/m 6,4 km/h (2 Bft) 100,00 %
26.01.2022 02:18 2,6 C 2,2 C -0,6 C 87 % 1033,4 hPa 0,0 l/m 0 min 0 min 0 W/m 3,2 km/h (1 Bft) 100,00 %
26.01.2022 02:20 2,6 C 2,2 C -0,6 C 87 % 1033,5 hPa 0,0 l/m 0 min 0 min 0 W/m 6,4 km/h (2 Bft) 100,00 %
26.01.2022 02:22 2,6 C 2,2 C -0,6 C 87 % 1033,5 hPa 0,0 l/m 0 min 0 min 0 W/m 6,4 km/h (2 Bft) 100,00 %
26.01.2022 02:24 2,6 C 2,2 C -0,6 C 87 % 1033,5 hPa 0,0 l/m 0 min 0 min 0 W/m 16,1 km/h (3 Bft) 97,83 %
26.01.2022 02:26 2,6 C 2,2 C -0,6 C 87 % 1033,5 hPa 0,0 l/m 0 min 0 min 0 W/m 12,9 km/h (3 Bft) 100,00 %
26.01.2022 02:28 2,6 C 2,2 C -0,6 C 87 % 1033,5 hPa 0,0 l/m 0 min 0 min 0 W/m 6,4 km/h (2 Bft) 100,00 %
26.01.2022 02:30 2,6 C 2,2 C -0,6 C 87 % 1033,6 hPa 0,0 l/m 0 min 0 min 0 W/m 6,4 km/h (2 Bft) 97,87 %
26.01.2022 02:32 2,6 C 2,2 C -0,6 C 87 % 1033,6 hPa 0,0 l/m 0 min 0 min 0 W/m 9,7 km/h (2 Bft) 97,87 %
26.01.2022 02:34 2,6 C 2,2 C -0,6 C 87 % 1033,6 hPa 0,0 l/m 0 min 0 min 0 W/m 6,4 km/h (2 Bft) 97,87 %
26.01.2022 02:36 2,6 C 2,2 C -0,6 C 87 % 1033,5 hPa 0,0 l/m 0 min 0 min 0 W/m 3,2 km/h (1 Bft) 97,83 %
26.01.2022 02:38 2,6 C 2,2 C -0,6 C 87 % 1033,4 hPa 0,0 l/m 0 min 0 min 0 W/m 9,7 km/h (2 Bft) 97,87 %
26.01.2022 02:40 2,6 C 2,2 C -0,6 C 87 % 1033,4 hPa 0,0 l/m 0 min 0 min 0 W/m 6,4 km/h (2 Bft) 97,87 %
26.01.2022 02:42 2,6 C 2,2 C -0,6 C 87 % 1033,4 hPa 0,0 l/m 0 min 0 min 0 W/m 6,4 km/h (2 Bft) 97,87 %
26.01.2022 02:44 2,6 C 2,2 C -0,6 C 87 % 1033,4 hPa 0,0 l/m 0 min 0 min 0 W/m 6,4 km/h (2 Bft) 97,87 %
26.01.2022 02:46 2,6 C 2,2 C -0,6 C 87 % 1033,3 hPa 0,0 l/m 0 min 0 min 0 W/m 6,4 km/h (2 Bft) 97,83 %
26.01.2022 02:48 2,6 C 2,2 C -0,6 C 87 % 1033,3 hPa 0,0 l/m 0 min 0 min 0 W/m 3,2 km/h (1 Bft) 95,74 %
26.01.2022 02:50 2,6 C 2,2 C -0,6 C 87 % 1033,4 hPa 0,0 l/m 0 min 0 min 0 W/m 3,2 km/h (1 Bft) 97,87 %
26.01.2022 02:52 2,6 C 2,2 C -0,6 C 87 % 1033,4 hPa 0,0 l/m 0 min 0 min 0 W/m 6,4 km/h (2 Bft) 97,87 %
26.01.2022 02:54 2,6 C 2,2 C -0,6 C 87 % 1033,3 hPa 0,0 l/m 0 min 0 min 0 W/m 9,7 km/h (2 Bft) 97,87 %
26.01.2022 02:56 2,6 C 2,2 C -0,6 C 87 % 1033,3 hPa 0,0 l/m 0 min 0 min 0 W/m 6,4 km/h (2 Bft) 97,87 %
26.01.2022 02:58 2,6 C 2,2 C -0,6 C 87 % 1033,5 hPa 0,0 l/m 0 min 0 min 0 W/m 9,7 km/h (2 Bft) 97,83 %
26.01.2022 03:00 2,6 C 2,2 C -0,6 C 87 % 1033,5 hPa 0,0 l/m 0 min 0 min 0 W/m 6,4 km/h (2 Bft) 97,87 %
26.01.2022 03:02 2,6 C 2,2 C -0,6 C 87 % 1033,4 hPa 0,0 l/m 0 min 0 min 0 W/m 6,4 km/h (2 Bft) 95,74 %
26.01.2022 03:04 2,6 C 2,2 C -0,6 C 87 % 1033,5 hPa 0,0 l/m 0 min 0 min 0 W/m 6,4 km/h (2 Bft) 97,87 %
26.01.2022 03:06 2,6 C 2,2 C -0,6 C 87 % 1033,4 hPa 0,0 l/m 0 min 0 min 0 W/m 6,4 km/h (2 Bft) 100,00 %
26.01.2022 03:08 2,6 C 2,2 C -0,6 C 87 % 1033,4 hPa 0,0 l/m 0 min 0 min 0 W/m 3,2 km/h (1 Bft) 100,00 %
26.01.2022 03:10 2,6 C 2,2 C -0,6 C 87 % 1033,4 hPa 0,0 l/m 0 min 0 min 0 W/m 3,2 km/h (1 Bft) 100,00 %
26.01.2022 03:12 2,6 C 2,2 C -0,6 C 87 % 1033,3 hPa 0,0 l/m 0 min 0 min 0 W/m 3,2 km/h (1 Bft) 100,00 %
26.01.2022 03:14 2,6 C 2,2 C -0,6 C 87 % 1033,4 hPa 0,0 l/m 0 min 0 min 0 W/m 6,4 km/h (2 Bft) 100,00 %
26.01.2022 03:16 2,6 C 2,2 C -0,6 C 87 % 1033,3 hPa 0,0 l/m 0 min 0 min 0 W/m 9,7 km/h (2 Bft) 100,00 %
26.01.2022 03:18 2,6 C 2,2 C -0,6 C 87 % 1033,3 hPa 0,0 l/m 0 min 0 min 0 W/m 3,2 km/h (1 Bft) 100,00 %
26.01.2022 03:20 2,6 C 2,2 C -0,6 C 87 % 1033,3 hPa 0,0 l/m 0 min 0 min 0 W/m 6,4 km/h (2 Bft) 100,00 %
26.01.2022 03:22 2,6 C 2,2 C -0,6 C 87 % 1033,3 hPa 0,0 l/m 0 min 0 min 0 W/m 3,2 km/h (1 Bft) 100,00 %
26.01.2022 03:24 2,6 C 2,2 C -0,6 C 87 % 1033,3 hPa 0,0 l/m 0 min 0 min 0 W/m 3,2 km/h (1 Bft) 100,00 %
26.01.2022 03:26 2,6 C 2,2 C -0,6 C 87 % 1033,3 hPa 0,0 l/m 0 min 0 min 0 W/m 0,0 km/h (0 Bft) 97,87 %
26.01.2022 03:28 2,6 C 2,2 C -0,6 C 87 % 1033,2 hPa 0,0 l/m 0 min 0 min 0 W/m 3,2 km/h (1 Bft) 100,00 %
26.01.2022 03:30 2,6 C 2,2 C -0,6 C 87 % 1033,2 hPa 0,0 l/m 0 min 0 min 0 W/m 6,4 km/h (2 Bft) 97,87 %
26.01.2022 03:32 2,6 C 2,2 C -0,6 C 87 % 1033,2 hPa 0,0 l/m 0 min 0 min 0 W/m 3,2 km/h (1 Bft) 100,00 %
26.01.2022 03:34 2,6 C 2,2 C -0,6 C 87 % 1033,2 hPa 0,0 l/m 0 min 0 min 0 W/m 3,2 km/h (1 Bft) 84,78 %
26.01.2022 03:36 2,6 C 2,2 C -0,6 C 87 % 1033,2 hPa 0,0 l/m 0 min 0 min 0 W/m 3,2 km/h (1 Bft) 65,22 %
26.01.2022 03:38 2,6 C 2,2 C -0,6 C 87 % 1033,2 hPa 0,0 l/m 0 min 0 min 0 W/m 6,4 km/h (2 Bft) 100,00 %
26.01.2022 03:40 2,6 C 2,2 C -0,6 C 87 % 1033,2 hPa 0,0 l/m 0 min 0 min 0 W/m 12,9 km/h (3 Bft) 95,74 %
26.01.2022 03:42 2,6 C 2,2 C -0,6 C 87 % 1033,1 hPa 0,0 l/m 0 min 0 min 0 W/m 6,4 km/h (2 Bft) 97,87 %
26.01.2022 03:44 2,5 C 2,2 C -0,6 C 87 % 1033,1 hPa 0,0 l/m 0 min 0 min 0 W/m 9,7 km/h (2 Bft) 93,62 %
26.01.2022 03:46 2,5 C 2,2 C -0,6 C 87 % 1033,1 hPa 0,0 l/m 0 min 0 min 0 W/m 6,4 km/h (2 Bft) 97,83 %
26.01.2022 03:48 2,5 C 2,2 C -0,6 C 87 % 1033,1 hPa 0,0 l/m 0 min 0 min 0 W/m 3,2 km/h (1 Bft) 95,74 %
26.01.2022 03:50 2,5 C 2,2 C -0,6 C 87 % 1033,0 hPa 0,0 l/m 0 min 0 min 0 W/m 12,9 km/h (3 Bft) 97,87 %
26.01.2022 03:52 2,4 C 2,2 C -0,6 C 87 % 1033,0 hPa 0,0 l/m 0 min 0 min 0 W/m 6,4 km/h (2 Bft) 95,74 %
26.01.2022 03:54 2,4 C 2,2 C -0,6 C 87 % 1033,1 hPa 0,0 l/m 0 min 0 min 0 W/m 3,2 km/h (1 Bft) 93,62 %
26.01.2022 03:56 2,4 C 2,2 C -0,6 C 87 % 1033,0 hPa 0,0 l/m 0 min 0 min 0 W/m 6,4 km/h (2 Bft) 95,74 %
26.01.2022 03:58 2,4 C 2,2 C -0,6 C 87 % 1033,0 hPa 0,0 l/m 0 min 0 min 0 W/m 6,4 km/h (2 Bft) 95,65 %
26.01.2022 04:00 2,4 C 2,2 C -0,6 C 87 % 1032,9 hPa 0,0 l/m 0 min 0 min 0 W/m 3,2 km/h (1 Bft) 93,62 %
26.01.2022 04:02 2,5 C 2,2 C -0,6 C 87 % 1033,0 hPa 0,0 l/m 0 min 0 min 0 W/m 3,2 km/h (1 Bft) 100,00 %
26.01.2022 04:04 2,5 C 2,2 C -0,6 C 87 % 1032,9 hPa 0,0 l/m 0 min 0 min 0 W/m 6,4 km/h (2 Bft) 97,87 %
26.01.2022 04:06 2,5 C 2,2 C -0,6 C 87 % 1032,9 hPa 0,0 l/m 0 min 0 min 0 W/m 3,2 km/h (1 Bft) 93,62 %
26.01.2022 04:08 2,4 C 2,2 C -0,6 C 87 % 1032,7 hPa 0,0 l/m 0 min 0 min 0 W/m 3,2 km/h (1 Bft) 95,65 %
26.01.2022 04:10 2,5 C 2,2 C -0,6 C 87 % 1032,6 hPa 0,0 l/m 0 min 0 min 0 W/m 6,4 km/h (2 Bft) 95,74 %
26.01.2022 04:12 2,4 C 2,2 C -0,6 C 87 % 1032,6 hPa 0,0 l/m 0 min 0 min 0 W/m 3,2 km/h (1 Bft) 93,62 %
26.01.2022 04:14 2,4 C 2,2 C -0,6 C 87 % 1032,6 hPa 0,0 l/m 0 min 0 min 0 W/m 3,2 km/h (1 Bft) 95,74 %
26.01.2022 04:16 2,5 C 2,2 C -0,6 C 87 % 1032,6 hPa 0,0 l/m 0 min 0 min 0 W/m 3,2 km/h (1 Bft) 93,62 %
26.01.2022 04:18 2,5 C 2,2 C -0,6 C 87 % 1032,7 hPa 0,0 l/m 0 min 0 min 0 W/m 6,4 km/h (2 Bft) 95,74 %
26.01.2022 04:20 2,4 C 2,2 C -0,6 C 87 % 1032,6 hPa 0,0 l/m 0 min 0 min 0 W/m 6,4 km/h (2 Bft) 97,83 %
26.01.2022 04:22 2,4 C 2,2 C -0,6 C 87 % 1032,5 hPa 0,0 l/m 0 min 0 min 0 W/m 3,2 km/h (1 Bft) 93,62 %
26.01.2022 04:24 2,4 C 2,2 C -0,6 C 87 % 1032,5 hPa 0,0 l/m 0 min 0 min 0 W/m 3,2 km/h (1 Bft) 91,49 %
26.01.2022 04:26 2,4 C 1,7 C -0,6 C 87 % 1032,6 hPa 0,0 l/m 0 min 0 min 0 W/m 3,2 km/h (1 Bft) 91,49 %
26.01.2022 04:28 2,4 C 1,7 C -0,6 C 87 % 1032,5 hPa 0,0 l/m 0 min 0 min 0 W/m 3,2 km/h (1 Bft) 93,62 %
26.01.2022 04:30 2,4 C 1,7 C -0,6 C 88 % 1032,4 hPa 0,0 l/m 0 min 0 min 0 W/m 3,2 km/h (1 Bft) 93,62 %
26.01.2022 04:32 2,4 C 1,7 C -0,6 C 88 % 1032,4 hPa 0,0 l/m 0 min 0 min 0 W/m 0,0 km/h (0 Bft) 95,65 %
26.01.2022 04:34 2,4 C 1,7 C -0,6 C 88 % 1032,5 hPa 0,0 l/m 0 min 0 min 0 W/m 3,2 km/h (1 Bft) 95,74 %
26.01.2022 04:36 2,4 C 1,7 C -0,6 C 88 % 1032,4 hPa 0,0 l/m 0 min 0 min 0 W/m 6,4 km/h (2 Bft) 100,00 %
26.01.2022 04:38 2,4 C 1,7 C -0,6 C 88 % 1032,4 hPa 0,0 l/m 0 min 0 min 0 W/m 6,4 km/h (2 Bft) 97,87 %
26.01.2022 04:40 2,4 C 1,7 C -0,6 C 88 % 1032,4 hPa 0,0 l/m 0 min 0 min 0 W/m 3,2 km/h (1 Bft) 97,87 %
26.01.2022 04:42 2,4 C 1,7 C -0,6 C 88 % 1032,3 hPa 0,0 l/m 0 min 0 min 0 W/m 3,2 km/h (1 Bft) 100,00 %
26.01.2022 04:44 2,4 C 1,7 C -0,6 C 88 % 1032,4 hPa 0,0 l/m 0 min 0 min 0 W/m 6,4 km/h (2 Bft) 97,83 %
26.01.2022 04:46 2,4 C 1,7 C -0,6 C 88 % 1032,3 hPa 0,0 l/m 0 min 0 min 0 W/m 6,4 km/h (2 Bft) 93,62 %
26.01.2022 04:48 2,4 C 1,7 C -0,6 C 88 % 1032,4 hPa 0,0 l/m 0 min 0 min 0 W/m 6,4 km/h (2 Bft) 97,87 %
26.01.2022 04:50 2,4 C 1,7 C -0,6 C 88 % 1032,4 hPa 0,0 l/m 0 min 0 min 0 W/m 3,2 km/h (1 Bft) 95,74 %
26.01.2022 04:52 2,3 C 1,7 C -0,6 C 88 % 1032,5 hPa 0,0 l/m 0 min 0 min 0 W/m 3,2 km/h (1 Bft) 97,87 %
26.01.2022 04:54 2,3 C 1,7 C -0,6 C 88 % 1032,5 hPa 0,0 l/m 0 min 0 min 0 W/m 3,2 km/h (1 Bft) 97,87 %
26.01.2022 04:56 2,3 C 1,7 C -0,6 C 88 % 1032,4 hPa 0,0 l/m 0 min 0 min 0 W/m 3,2 km/h (1 Bft) 100,00 %
26.01.2022 04:58 2,3 C 1,7 C -0,6 C 88 % 1032,5 hPa 0,0 l/m 0 min 0 min 0 W/m 3,2 km/h (1 Bft) 100,00 %
26.01.2022 05:00 2,3 C 1,7 C -0,6 C 88 % 1032,5 hPa 0,0 l/m 0 min 0 min 0 W/m 6,4 km/h (2 Bft) 100,00 %
26.01.2022 05:02 2,3 C 1,7 C -0,6 C 88 % 1032,6 hPa 0,0 l/m 0 min 0 min 0 W/m 3,2 km/h (1 Bft) 100,00 %
26.01.2022 05:04 2,3 C 1,7 C -0,6 C 88 % 1032,6 hPa 0,0 l/m 0 min 0 min 0 W/m 3,2 km/h (1 Bft) 100,00 %
26.01.2022 05:06 2,3 C 1,7 C -0,6 C 88 % 1032,5 hPa 0,0 l/m 0 min 0 min 0 W/m 3,2 km/h (1 Bft) 100,00 %
26.01.2022 05:08 2,3 C 1,7 C -0,6 C 88 % 1032,6 hPa 0,0 l/m 0 min 0 min 0 W/m 3,2 km/h (1 Bft) 97,83 %
26.01.2022 05:10 2,3 C 1,7 C -0,6 C 88 % 1032,7 hPa 0,0 l/m 0 min 0 min 0 W/m 0,0 km/h (0 Bft) 100,00 %
26.01.2022 05:12 2,3 C 1,7 C -0,6 C 88 % 1032,7 hPa 0,0 l/m 0 min 0 min 0 W/m 0,0 km/h (0 Bft) 100,00 %
26.01.2022 05:14 2,3 C 1,7 C -0,6 C 88 % 1032,7 hPa 0,0 l/m 0 min 0 min 0 W/m 3,2 km/h (1 Bft) 100,00 %
26.01.2022 05:16 2,3 C 1,7 C -0,6 C 88 % 1032,8 hPa 0,0 l/m 0 min 0 min 0 W/m 6,4 km/h (2 Bft) 100,00 %
26.01.2022 05:18 2,3 C 1,7 C -0,6 C 88 % 1032,7 hPa 0,0 l/m 0 min 0 min 0 W/m 3,2 km/h (1 Bft) 100,00 %
26.01.2022 05:20 2,3 C 1,7 C -0,6 C 88 % 1032,7 hPa 0,0 l/m 0 min 0 min 0 W/m 6,4 km/h (2 Bft) 100,00 %
26.01.2022 05:22 2,3 C 1,7 C -1,1 C 88 % 1032,7 hPa 0,0 l/m 0 min 0 min 0 W/m 6,4 km/h (2 Bft) 47,37 %
26.01.2022 05:24 2,3 C 1,7 C -1,1 C 88 % 1032,7 hPa 0,0 l/m 0 min 0 min 0 W/m 6,4 km/h (2 Bft) 100,00 %
26.01.2022 05:26 2,3 C 1,7 C -1,1 C 88 % 1032,6 hPa 0,0 l/m 0 min 0 min 0 W/m 6,4 km/h (2 Bft) 97,87 %
26.01.2022 05:28 2,3 C 1,7 C -0,6 C 88 % 1032,6 hPa 0,0 l/m 0 min 0 min 0 W/m 3,2 km/h (1 Bft) 100,00 %
26.01.2022 05:30 2,3 C 1,7 C -0,6 C 88 % 1032,6 hPa 0,0 l/m 0 min 0 min 0 W/m 9,7 km/h (2 Bft) 97,83 %
26.01.2022 05:32 2,3 C 1,7 C -0,6 C 88 % 1032,6 hPa 0,0 l/m 0 min 0 min 0 W/m 9,7 km/h (2 Bft) 95,74 %
26.01.2022 05:34 2,3 C 1,7 C -1,1 C 88 % 1032,6 hPa 0,0 l/m 0 min 0 min 0 W/m 9,7 km/h (2 Bft) 100,00 %
26.01.2022 05:36 2,3 C 1,7 C -1,1 C 88 % 1032,6 hPa 0,0 l/m 0 min 0 min 0 W/m 9,7 km/h (2 Bft) 100,00 %
26.01.2022 05:38 2,3 C 1,7 C -1,1 C 88 % 1032,7 hPa 0,0 l/m 0 min 0 min 0 W/m 12,9 km/h (3 Bft) 100,00 %
26.01.2022 05:40 2,3 C 1,7 C -1,1 C 88 % 1032,8 hPa 0,0 l/m 0 min 0 min 0 W/m 6,4 km/h (2 Bft) 100,00 %
26.01.2022 05:42 2,3 C 1,7 C -1,1 C 88 % 1032,8 hPa 0,0 l/m 0 min 0 min 0 W/m 12,9 km/h (3 Bft) 100,00 %
26.01.2022 05:44 2,3 C 1,7 C -1,1 C 88 % 1032,8 hPa 0,0 l/m 0 min 0 min 0 W/m 9,7 km/h (2 Bft) 100,00 %
26.01.2022 05:46 2,3 C 1,7 C -1,1 C 88 % 1032,8 hPa 0,0 l/m 0 min 0 min 0 W/m 6,4 km/h (2 Bft) 100,00 %
26.01.2022 05:48 2,3 C 1,7 C -1,1 C 88 % 1032,8 hPa 0,0 l/m 0 min 0 min 0 W/m 12,9 km/h (3 Bft) 100,00 %
26.01.2022 05:50 2,3 C 1,7 C -0,6 C 88 % 1032,9 hPa 0,0 l/m 0 min 0 min 0 W/m 6,4 km/h (2 Bft) 100,00 %
26.01.2022 05:52 2,3 C 1,7 C -0,6 C 88 % 1032,9 hPa 0,0 l/m 0 min 0 min 0 W/m 6,4 km/h (2 Bft) 100,00 %
26.01.2022 05:54 2,3 C 1,7 C -1,1 C 88 % 1033,0 hPa 0,0 l/m 0 min 0 min 0 W/m 6,4 km/h (2 Bft) 100,00 %
26.01.2022 05:56 2,3 C 1,7 C -0,6 C 88 % 1032,9 hPa 0,0 l/m 0 min 0 min 0 W/m 6,4 km/h (2 Bft) 100,00 %
26.01.2022 05:58 2,3 C 1,7 C -1,1 C 88 % 1032,9 hPa 0,0 l/m 0 min 0 min 0 W/m 9,7 km/h (2 Bft) 100,00 %
26.01.2022 06:00 2,3 C 1,7 C -1,1 C 89 % 1032,8 hPa 0,0 l/m 0 min 0 min 0 W/m 16,1 km/h (3 Bft) 100,00 %
26.01.2022 06:02 2,3 C 1,7 C -1,1 C 89 % 1032,8 hPa 0,0 l/m 0 min 0 min 0 W/m 6,4 km/h (2 Bft) 100,00 %
26.01.2022 06:04 2,2 C 1,7 C -1,1 C 89 % 1032,8 hPa 0,0 l/m 0 min 0 min 0 W/m 12,9 km/h (3 Bft) 100,00 %
26.01.2022 06:08 2,2 C 1,7 C -1,1 C 88 % 1032,8 hPa 0,0 l/m 0 min 0 min 0 W/m 12,9 km/h (3 Bft) 98,92 %
26.01.2022 06:10 2,2 C 1,7 C -1,1 C 88 % 1032,8 hPa 0,0 l/m 0 min 0 min 0 W/m 6,4 km/h (2 Bft) 95,74 %
26.01.2022 06:12 2,2 C 1,7 C -1,1 C 88 % 1032,9 hPa 0,0 l/m 0 min 0 min 0 W/m 6,4 km/h (2 Bft) 100,00 %
26.01.2022 06:19 2,1 C 1,7 C -1,1 C 88 % 1033,2 hPa 0,0 l/m 0 min 0 min 0 W/m 12,9 km/h (3 Bft) 100,00 %
26.01.2022 06:20 2,1 C 1,7 C -1,1 C 88 % 1033,2 hPa 0,0 l/m 0 min 0 min 0 W/m 12,9 km/h (3 Bft) 95,65 %
26.01.2022 06:22 2,1 C 1,7 C -1,1 C 88 % 1033,1 hPa 0,0 l/m 0 min 0 min 0 W/m 16,1 km/h (3 Bft) 95,74 %
26.01.2022 06:24 2,1 C 1,7 C -1,1 C 88 % 1033,1 hPa 0,0 l/m 0 min 0 min 0 W/m 6,4 km/h (2 Bft) 95,65 %
26.01.2022 06:26 2,1 C 1,7 C -1,1 C 88 % 1033,1 hPa 0,0 l/m 0 min 0 min 0 W/m 16,1 km/h (3 Bft) 93,62 %
26.01.2022 06:28 2,1 C 1,7 C -1,1 C 88 % 1033,1 hPa 0,0 l/m 0 min 0 min 0 W/m 9,7 km/h (2 Bft) 95,74 %
26.01.2022 06:30 2,1 C 1,7 C -1,1 C 88 % 1033,1 hPa 0,0 l/m 0 min 0 min 0 W/m 16,1 km/h (3 Bft) 95,65 %
26.01.2022 06:32 2,1 C 1,7 C -1,1 C 88 % 1033,2 hPa 0,0 l/m 0 min 0 min 0 W/m 9,7 km/h (2 Bft) 95,74 %
26.01.2022 06:34 2,0 C 1,7 C -1,1 C 88 % 1033,2 hPa 0,0 l/m 0 min 0 min 0 W/m 9,7 km/h (2 Bft) 95,74 %
26.01.2022 06:36 2,0 C 1,7 C -1,1 C 88 % 1033,3 hPa 0,0 l/m 0 min 0 min 0 W/m 9,7 km/h (2 Bft) 95,74 %
26.01.2022 06:38 2,0 C 1,7 C -1,1 C 88 % 1033,2 hPa 0,0 l/m 0 min 0 min 0 W/m 12,9 km/h (3 Bft) 93,62 %
26.01.2022 06:40 2,1 C 1,7 C -1,1 C 88 % 1033,1 hPa 0,0 l/m 0 min 0 min 0 W/m 9,7 km/h (2 Bft) 93,62 %
26.01.2022 06:42 2,0 C 1,7 C -1,1 C 88 % 1033,1 hPa 0,0 l/m 0 min 0 min 0 W/m 9,7 km/h (2 Bft) 97,83 %
26.01.2022 06:44 2,0 C 1,7 C -1,1 C 88 % 1033,0 hPa 0,0 l/m 0 min 0 min 0 W/m 12,9 km/h (3 Bft) 95,74 %
26.01.2022 06:46 2,0 C 1,7 C -1,1 C 88 % 1033,1 hPa 0,0 l/m 0 min 0 min 0 W/m 6,4 km/h (2 Bft) 97,87 %
26.01.2022 06:48 2,0 C 1,7 C -1,1 C 88 % 1033,0 hPa 0,0 l/m 0 min 0 min 0 W/m 6,4 km/h (2 Bft) 93,62 %
26.01.2022 06:50 2,0 C 1,7 C -1,1 C 88 % 1032,9 hPa 0,0 l/m 0 min 0 min 0 W/m 6,4 km/h (2 Bft) 95,74 %
26.01.2022 06:52 2,0 C 1,7 C -1,1 C 88 % 1033,1 hPa 0,0 l/m 0 min 0 min 0 W/m 6,4 km/h (2 Bft) 93,62 %
26.01.2022 06:54 2,0 C 1,7 C -1,1 C 88 % 1033,1 hPa 0,0 l/m 0 min 0 min 0 W/m 12,9 km/h (3 Bft) 95,65 %
26.01.2022 06:56 2,0 C 1,7 C -1,1 C 88 % 1033,1 hPa 0,0 l/m 0 min 0 min 0 W/m 12,9 km/h (3 Bft) 93,62 %
26.01.2022 06:58 2,0 C 1,7 C -1,1 C 88 % 1033,0 hPa 0,0 l/m 0 min 0 min 0 W/m 12,9 km/h (3 Bft) 93,62 %
26.01.2022 07:00 2,0 C 1,7 C -1,1 C 88 % 1032,9 hPa 0,0 l/m 0 min 0 min 0 W/m 12,9 km/h (3 Bft) 93,62 %
26.01.2022 07:02 2,0 C 1,7 C -1,1 C 88 % 1032,8 hPa 0,0 l/m 0 min 0 min 0 W/m 12,9 km/h (3 Bft) 93,62 %
26.01.2022 07:04 2,0 C 1,7 C -1,1 C 88 % 1032,8 hPa 0,0 l/m 0 min 0 min 0 W/m 6,4 km/h (2 Bft) 97,83 %
26.01.2022 07:06 2,0 C 1,7 C -1,1 C 88 % 1032,7 hPa 0,0 l/m 0 min 0 min 0 W/m 6,4 km/h (2 Bft) 97,87 %
26.01.2022 07:08 1,9 C 1,7 C -1,1 C 88 % 1032,6 hPa 0,0 l/m 0 min 0 min 0 W/m 6,4 km/h (2 Bft) 97,87 %
26.01.2022 07:10 1,9 C 1,7 C -1,1 C 88 % 1032,6 hPa 0,0 l/m 0 min 0 min 0 W/m 6,4 km/h (2 Bft) 97,87 %
26.01.2022 07:12 1,9 C 1,7 C -1,1 C 88 % 1032,4 hPa 0,0 l/m 0 min 0 min 0 W/m 6,4 km/h (2 Bft) 97,87 %
26.01.2022 07:14 1,9 C 1,7 C -1,1 C 88 % 1032,3 hPa 0,0 l/m 0 min 0 min 0 W/m 6,4 km/h (2 Bft) 97,87 %
26.01.2022 07:16 2,0 C 1,7 C -1,1 C 88 % 1032,4 hPa 0,0 l/m 0 min 0 min 0 W/m 3,2 km/h (1 Bft) 95,74 %
26.01.2022 07:18 2,0 C 1,7 C -1,1 C 88 % 1032,6 hPa 0,0 l/m 0 min 0 min 0 W/m 9,7 km/h (2 Bft) 97,83 %
26.01.2022 07:20 2,0 C 1,7 C -1,1 C 88 % 1032,7 hPa 0,0 l/m 0 min 0 min 0 W/m 6,4 km/h (2 Bft) 97,87 %
26.01.2022 07:22 2,0 C 1,7 C -1,1 C 88 % 1032,6 hPa 0,0 l/m 0 min 0 min 0 W/m 6,4 km/h (2 Bft) 97,87 %
26.01.2022 07:24 2,0 C 1,7 C -1,1 C 88 % 1032,8 hPa 0,0 l/m 0 min 0 min 0 W/m 6,4 km/h (2 Bft) 97,87 %
26.01.2022 07:26 2,0 C 1,7 C -1,1 C 88 % 1032,9 hPa 0,0 l/m 0 min 0 min 0 W/m 6,4 km/h (2 Bft) 97,87 %
26.01.2022 07:28 2,0 C 1,7 C -1,1 C 88 % 1032,8 hPa 0,0 l/m 0 min 0 min 0 W/m 6,4 km/h (2 Bft) 97,83 %
26.01.2022 07:30 2,0 C 1,7 C -1,1 C 88 % 1032,7 hPa 0,0 l/m 0 min 0 min 0 W/m 3,2 km/h (1 Bft) 97,87 %
26.01.2022 07:32 2,0 C 1,7 C -1,1 C 88 % 1032,8 hPa 0,0 l/m 0 min 0 min 0 W/m 3,2 km/h (1 Bft) 97,87 %
26.01.2022 07:34 2,0 C 1,7 C -1,1 C 88 % 1032,7 hPa 0,0 l/m 0 min 0 min 0 W/m 6,4 km/h (2 Bft) 95,74 %
26.01.2022 07:36 2,0 C 1,7 C -1,1 C 88 % 1032,7 hPa 0,0 l/m 0 min 0 min 0 W/m 3,2 km/h (1 Bft) 95,74 %
26.01.2022 07:38 2,0 C 1,7 C -1,1 C 88 % 1032,9 hPa 0,0 l/m 0 min 0 min 0 W/m 3,2 km/h (1 Bft) 97,87 %
26.01.2022 07:40 2,0 C 1,7 C -1,1 C 88 % 1032,8 hPa 0,0 l/m 0 min 0 min 0 W/m 9,7 km/h (2 Bft) 100,00 %
26.01.2022 07:42 2,0 C 1,7 C -1,1 C 88 % 1032,8 hPa 0,0 l/m 0 min 0 min 0 W/m 3,2 km/h (1 Bft) 100,00 %
26.01.2022 07:44 2,0 C 1,7 C -1,1 C 88 % 1032,9 hPa 0,0 l/m 0 min 0 min 0 W/m 3,2 km/h (1 Bft) 100,00 %
26.01.2022 07:46 2,0 C 1,7 C -1,1 C 89 % 1033,0 hPa 0,0 l/m 0 min 0 min 0 W/m 6,4 km/h (2 Bft) 97,87 %
26.01.2022 07:48 2,0 C 1,7 C -1,1 C 89 % 1032,9 hPa 0,0 l/m 0 min 0 min 0 W/m 6,4 km/h (2 Bft) 100,00 %
26.01.2022 07:50 2,0 C 1,7 C -1,1 C 89 % 1032,8 hPa 0,0 l/m 0 min 0 min 0 W/m 6,4 km/h (2 Bft) 100,00 %
26.01.2022 07:52 2,0 C 1,7 C -1,1 C 89 % 1032,8 hPa 0,0 l/m 0 min 0 min 0 W/m 3,2 km/h (1 Bft) 95,65 %
26.01.2022 07:54 2,0 C 1,7 C -1,1 C 89 % 1032,7 hPa 0,0 l/m 0 min 0 min 0 W/m 3,2 km/h (1 Bft) 97,87 %
26.01.2022 07:56 2,0 C 1,7 C -1,1 C 89 % 1032,7 hPa 0,0 l/m 0 min 0 min 0 W/m 3,2 km/h (1 Bft) 100,00 %
26.01.2022 07:58 2,0 C 1,7 C -1,1 C 89 % 1032,7 hPa 0,0 l/m 0 min 0 min 0 W/m 3,2 km/h (1 Bft) 97,87 %
26.01.2022 08:00 2,0 C 1,7 C -1,1 C 89 % 1032,6 hPa 0,0 l/m 0 min 0 min 0 W/m 3,2 km/h (1 Bft) 100,00 %
26.01.2022 08:02 2,0 C 1,7 C -1,1 C 89 % 1032,5 hPa 0,0 l/m 0 min 0 min 0 W/m 3,2 km/h (1 Bft) 100,00 %
26.01.2022 08:04 2,0 C 1,7 C -1,1 C 89 % 1032,4 hPa 0,0 l/m 0 min 0 min 0 W/m 3,2 km/h (1 Bft) 100,00 %
26.01.2022 08:06 2,0 C 1,7 C -1,1 C 89 % 1032,4 hPa 0,0 l/m 0 min 0 min 0 W/m 3,2 km/h (1 Bft) 95,74 %
26.01.2022 08:08 2,0 C 1,7 C -1,1 C 89 % 1032,4 hPa 0,0 l/m 0 min 0 min 0 W/m 3,2 km/h (1 Bft) 97,87 %
26.01.2022 08:10 2,0 C 1,7 C -1,1 C 89 % 1032,5 hPa 0,0 l/m 0 min 0 min 0 W/m 6,4 km/h (2 Bft) 97,87 %
26.01.2022 08:12 2,0 C 1,7 C -1,1 C 89 % 1032,6 hPa 0,0 l/m 0 min 0 min 0 W/m 3,2 km/h (1 Bft) 97,87 %
26.01.2022 08:14 1,9 C 1,7 C -1,1 C 89 % 1032,6 hPa 0,0 l/m 0 min 0 min 0 W/m 6,4 km/h (2 Bft) 97,87 %
26.01.2022 08:16 1,9 C 1,7 C -1,1 C 89 % 1032,7 hPa 0,0 l/m 0 min 0 min 0 W/m 3,2 km/h (1 Bft) 97,83 %
26.01.2022 08:18 2,0 C 1,7 C -1,1 C 89 % 1032,7 hPa 0,0 l/m 0 min 0 min 0 W/m 3,2 km/h (1 Bft) 97,87 %
26.01.2022 08:20 2,0 C 1,7 C -1,1 C 89 % 1032,7 hPa 0,0 l/m 0 min 0 min 0 W/m 3,2 km/h (1 Bft) 97,87 %
26.01.2022 08:22 2,0 C 1,7 C -1,1 C 89 % 1032,7 hPa 0,0 l/m 0 min 0 min 0 W/m 3,2 km/h (1 Bft) 95,74 %
26.01.2022 08:24 2,0 C 1,7 C -1,1 C 89 % 1032,6 hPa 0,0 l/m 0 min 0 min 0 W/m 3,2 km/h (1 Bft) 93,62 %
26.01.2022 08:26 2,0 C 1,7 C -1,1 C 89 % 1032,5 hPa 0,0 l/m 0 min 0 min 0 W/m 3,2 km/h (1 Bft) 97,87 %
26.01.2022 08:28 2,0 C 1,7 C -1,1 C 89 % 1032,5 hPa 0,0 l/m 0 min 0 min 0 W/m 6,4 km/h (2 Bft) 95,65 %
26.01.2022 08:30 2,0 C 1,7 C -1,1 C 89 % 1032,4 hPa 0,0 l/m 0 min 0 min 0 W/m 6,4 km/h (2 Bft) 97,87 %
26.01.2022 08:32 2,0 C 1,7 C -1,1 C 89 % 1032,4 hPa 0,0 l/m 0 min 0 min 0 W/m 3,2 km/h (1 Bft) 97,87 %
26.01.2022 08:34 2,0 C 1,7 C -1,1 C 89 % 1032,5 hPa 0,0 l/m 0 min 0 min 0 W/m 6,4 km/h (2 Bft) 97,87 %
26.01.2022 08:36 2,0 C 1,7 C -1,1 C 89 % 1032,5 hPa 0,0 l/m 0 min 0 min 0 W/m 9,7 km/h (2 Bft) 100,00 %
26.01.2022 08:38 2,0 C 1,7 C -1,1 C 89 % 1032,5 hPa 0,0 l/m 0 min 0 min 0 W/m 6,4 km/h (2 Bft) 97,87 %
26.01.2022 08:40 2,0 C 1,7 C -1,1 C 89 % 1032,5 hPa 0,0 l/m 0 min 0 min 0 W/m 3,2 km/h (1 Bft) 100,00 %
26.01.2022 08:42 2,0 C 1,7 C -1,1 C 89 % 1032,5 hPa 0,0 l/m 0 min 0 min 0 W/m 6,4 km/h (2 Bft) 100,00 %
26.01.2022 08:43 2,1 C 1,7 C -1,1 C 89 % 1032,5 hPa 0,0 l/m 0 min 0 min 0 W/m 9,7 km/h (2 Bft) 100,00 %
26.01.2022 08:46 2,1 C 1,7 C -1,1 C 89 % 1032,5 hPa 0,0 l/m 0 min 0 min 3 W/m 3,2 km/h (1 Bft) 97,87 %
26.01.2022 08:48 2,1 C 1,7 C -1,1 C 89 % 1032,5 hPa 0,0 l/m 0 min 0 min 5 W/m 3,2 km/h (1 Bft) 80,85 %
26.01.2022 08:50 2,1 C 1,7 C -1,1 C 89 % 1032,6 hPa 0,0 l/m 0 min 0 min 5 W/m 3,2 km/h (1 Bft) 72,09 %
26.01.2022 08:52 2,1 C 1,7 C -1,1 C 89 % 1032,6 hPa 0,0 l/m 0 min 0 min 5 W/m 6,4 km/h (2 Bft) 95,65 %
26.01.2022 08:54 2,1 C 1,7 C -1,1 C 89 % 1032,8 hPa 0,0 l/m 0 min 0 min 5 W/m 3,2 km/h (1 Bft) 97,87 %
26.01.2022 08:56 2,1 C 1,7 C -1,1 C 89 % 1032,8 hPa 0,0 l/m 0 min 0 min 5 W/m 6,4 km/h (2 Bft) 95,74 %
26.01.2022 08:58 2,1 C 1,7 C -1,1 C 89 % 1032,8 hPa 0,0 l/m 0 min 0 min 5 W/m 9,7 km/h (2 Bft) 97,87 %
26.01.2022 09:00 2,1 C 1,7 C -1,1 C 89 % 1032,8 hPa 0,0 l/m 0 min 0 min 5 W/m 9,7 km/h (2 Bft) 97,87 %
26.01.2022 09:02 2,1 C 1,7 C -1,1 C 89 % 1032,8 hPa 0,0 l/m 0 min 0 min 5 W/m 6,4 km/h (2 Bft) 97,87 %
26.01.2022 09:04 2,1 C 1,7 C -1,1 C 89 % 1032,6 hPa 0,0 l/m 0 min 0 min 7 W/m 12,9 km/h (3 Bft) 97,83 %
26.01.2022 09:06 2,1 C 1,7 C -1,1 C 89 % 1032,5 hPa 0,0 l/m 0 min 0 min 7 W/m 16,1 km/h (3 Bft) 97,87 %
26.01.2022 09:08 2,1 C 1,7 C -1,1 C 89 % 1032,5 hPa 0,0 l/m 0 min 0 min 7 W/m 9,7 km/h (2 Bft) 97,87 %
26.01.2022 09:10 2,2 C 1,7 C -1,1 C 89 % 1032,7 hPa 0,0 l/m 0 min 0 min 7 W/m 6,4 km/h (2 Bft) 97,87 %
26.01.2022 09:12 2,1 C 1,7 C -1,1 C 89 % 1032,7 hPa 0,0 l/m 0 min 0 min 7 W/m 12,9 km/h (3 Bft) 97,87 %
26.01.2022 09:14 2,2 C 1,7 C -1,1 C 90 % 1032,6 hPa 0,0 l/m 0 min 0 min 8 W/m 6,4 km/h (2 Bft) 97,83 %
26.01.2022 09:16 2,2 C 1,7 C -1,1 C 90 % 1032,5 hPa 0,0 l/m 0 min 0 min 9 W/m 6,4 km/h (2 Bft) 97,87 %
26.01.2022 09:18 2,2 C 1,7 C -1,1 C 90 % 1032,5 hPa 0,0 l/m 0 min 0 min 10 W/m 12,9 km/h (3 Bft) 97,87 %
26.01.2022 09:20 2,2 C 1,7 C -1,1 C 90 % 1032,8 hPa 0,0 l/m 0 min 0 min 10 W/m 3,2 km/h (1 Bft) 95,74 %
26.01.2022 09:22 2,2 C 1,7 C -1,1 C 90 % 1032,8 hPa 0,0 l/m 0 min 0 min 9 W/m 6,4 km/h (2 Bft) 97,87 %
26.01.2022 09:24 2,2 C 1,7 C -1,1 C 90 % 1032,7 hPa 0,0 l/m 0 min 0 min 10 W/m 3,2 km/h (1 Bft) 97,87 %
26.01.2022 09:26 2,2 C 1,7 C -1,1 C 90 % 1032,7 hPa 0,0 l/m 0 min 0 min 11 W/m 6,4 km/h (2 Bft) 95,65 %
26.01.2022 09:28 2,2 C 1,7 C -1,1 C 90 % 1032,8 hPa 0,0 l/m 0 min 0 min 11 W/m 6,4 km/h (2 Bft) 95,74 %
26.01.2022 09:30 2,2 C 1,7 C -1,1 C 90 % 1032,8 hPa 0,0 l/m 0 min 0 min 11 W/m 3,2 km/h (1 Bft) 97,87 %
26.01.2022 09:32 2,2 C 1,7 C -1,1 C 90 % 1032,9 hPa 0,0 l/m 0 min 0 min 12 W/m 22,5 km/h (4 Bft) 97,87 %
26.01.2022 09:34 2,2 C 1,7 C -1,1 C 90 % 1033,0 hPa 0,0 l/m 0 min 0 min 12 W/m 9,7 km/h (2 Bft) 100,00 %
26.01.2022 09:36 2,2 C 1,7 C -1,1 C 90 % 1033,0 hPa 0,0 l/m 0 min 0 min 12 W/m 9,7 km/h (2 Bft) 100,00 %
26.01.2022 09:38 2,2 C 1,7 C -1,1 C 90 % 1032,9 hPa 0,0 l/m 0 min 0 min 12 W/m 3,2 km/h (1 Bft) 100,00 %
26.01.2022 09:40 2,2 C 1,7 C -1,1 C 90 % 1033,0 hPa 0,0 l/m 0 min 0 min 14 W/m 6,4 km/h (2 Bft) 100,00 %
26.01.2022 09:42 2,2 C 1,7 C -1,1 C 90 % 1033,0 hPa 0,0 l/m 0 min 0 min 15 W/m 12,9 km/h (3 Bft) 97,87 %
26.01.2022 09:44 2,2 C 1,7 C -1,1 C 90 % 1033,1 hPa 0,0 l/m 0 min 0 min 16 W/m 12,9 km/h (3 Bft) 97,87 %
26.01.2022 09:46 2,2 C 1,7 C -1,1 C 90 % 1033,2 hPa 0,0 l/m 0 min 0 min 15 W/m 6,4 km/h (2 Bft) 100,00 %
26.01.2022 09:48 2,2 C 1,7 C -1,1 C 90 % 1033,3 hPa 0,0 l/m 0 min 0 min 16 W/m 3,2 km/h (1 Bft) 100,00 %
26.01.2022 09:50 2,2 C 1,7 C -1,1 C 91 % 1033,3 hPa 0,0 l/m 0 min 0 min 15 W/m 6,4 km/h (2 Bft) 100,00 %
26.01.2022 09:52 2,3 C 1,7 C -0,6 C 91 % 1033,2 hPa 0,0 l/m 0 min 0 min 16 W/m 9,7 km/h (2 Bft) 95,74 %
26.01.2022 09:54 2,3 C 1,7 C -0,6 C 91 % 1033,2 hPa 0,0 l/m 0 min 0 min 18 W/m 9,7 km/h (2 Bft) 97,87 %
26.01.2022 09:56 2,3 C 1,7 C -0,6 C 91 % 1033,2 hPa 0,0 l/m 0 min 0 min 18 W/m 6,4 km/h (2 Bft) 95,74 %
26.01.2022 09:58 2,3 C 1,7 C -0,6 C 91 % 1033,2 hPa 0,0 l/m 0 min 0 min 18 W/m 3,2 km/h (1 Bft) 95,74 %
26.01.2022 10:00 2,3 C 1,7 C -0,6 C 91 % 1033,2 hPa 0,0 l/m 0 min 0 min 18 W/m 6,4 km/h (2 Bft) 95,74 %
26.01.2022 10:02 2,3 C 1,7 C -0,6 C 91 % 1033,2 hPa 0,0 l/m 0 min 0 min 18 W/m 12,9 km/h (3 Bft) 93,48 %
26.01.2022 10:04 2,3 C 1,7 C -0,6 C 91 % 1033,3 hPa 0,0 l/m 0 min 0 min 18 W/m 9,7 km/h (2 Bft) 95,74 %
26.01.2022 10:06 2,3 C 1,7 C -0,6 C 91 % 1033,3 hPa 0,0 l/m 0 min 0 min 16 W/m 12,9 km/h (3 Bft) 95,74 %
26.01.2022 10:08 2,3 C 1,7 C -0,6 C 91 % 1033,3 hPa 0,0 l/m 0 min 0 min 18 W/m 3,2 km/h (1 Bft) 95,74 %
26.01.2022 10:10 2,3 C 1,7 C -0,6 C 91 % 1033,2 hPa 0,0 l/m 0 min 0 min 16 W/m 16,1 km/h (3 Bft) 93,62 %
26.01.2022 10:12 2,3 C 1,7 C -0,6 C 91 % 1033,2 hPa 0,0 l/m 0 min 0 min 19 W/m 3,2 km/h (1 Bft) 95,74 %
26.01.2022 10:14 2,3 C 1,7 C -0,6 C 91 % 1033,1 hPa 0,0 l/m 0 min 0 min 19 W/m 12,9 km/h (3 Bft) 93,48 %
26.01.2022 10:16 2,3 C 1,7 C -0,6 C 91 % 1033,1 hPa 0,0 l/m 0 min 0 min 19 W/m 12,9 km/h (3 Bft) 96,08 %
26.01.2022 10:18 2,3 C 1,7 C -0,6 C 91 % 1033,2 hPa 0,0 l/m 0 min 0 min 19 W/m 6,4 km/h (2 Bft) 95,74 %
26.01.2022 10:20 2,3 C 1,7 C -0,6 C 91 % 1033,2 hPa 0,0 l/m 0 min 0 min 20 W/m 6,4 km/h (2 Bft) 95,74 %
26.01.2022 10:22 2,3 C 1,7 C -0,6 C 91 % 1033,2 hPa 0,0 l/m 0 min 0 min 21 W/m 16,1 km/h (3 Bft) 95,74 %
26.01.2022 10:24 2,3 C 1,7 C -0,6 C 91 % 1033,2 hPa 0,0 l/m 0 min 0 min 21 W/m 12,9 km/h (3 Bft) 95,65 %
26.01.2022 10:26 2,3 C 1,7 C -0,6 C 91 % 1033,2 hPa 0,0 l/m 0 min 0 min 22 W/m 12,9 km/h (3 Bft) 93,62 %
26.01.2022 10:28 2,3 C 1,7 C -0,6 C 91 % 1033,4 hPa 0,0 l/m 0 min 0 min 21 W/m 12,9 km/h (3 Bft) 95,74 %
26.01.2022 10:30 2,3 C 2,2 C -0,6 C 91 % 1033,4 hPa 0,0 l/m 0 min 0 min 21 W/m 6,4 km/h (2 Bft) 95,74 %
26.01.2022 10:32 2,3 C 2,2 C -0,6 C 91 % 1033,4 hPa 0,0 l/m 0 min 0 min 19 W/m 6,4 km/h (2 Bft) 100,00 %
26.01.2022 10:34 2,3 C 2,2 C -0,6 C 91 % 1033,3 hPa 0,0 l/m 0 min 0 min 19 W/m 6,4 km/h (2 Bft) 97,87 %
26.01.2022 10:36 2,3 C 2,2 C -0,6 C 91 % 1033,3 hPa 0,0 l/m 0 min 0 min 22 W/m 16,1 km/h (3 Bft) 97,83 %
26.01.2022 10:38 2,3 C 2,2 C -0,6 C 91 % 1033,4 hPa 0,0 l/m 0 min 0 min 22 W/m 16,1 km/h (3 Bft) 97,87 %
26.01.2022 10:40 2,3 C 2,2 C -0,6 C 91 % 1033,4 hPa 0,0 l/m 0 min 0 min 19 W/m 6,4 km/h (2 Bft) 95,74 %
26.01.2022 10:42 2,3 C 2,2 C -0,6 C 92 % 1033,4 hPa 0,0 l/m 0 min 0 min 18 W/m 16,1 km/h (3 Bft) 97,87 %
26.01.2022 10:44 2,3 C 2,2 C -0,6 C 91 % 1033,3 hPa 0,0 l/m 0 min 0 min 20 W/m 16,1 km/h (3 Bft) 100,00 %
26.01.2022 10:46 2,3 C 2,2 C -0,6 C 91 % 1033,4 hPa 0,0 l/m 0 min 0 min 23 W/m 9,7 km/h (2 Bft) 97,87 %
26.01.2022 10:48 2,3 C 2,2 C -0,6 C 92 % 1033,4 hPa 0,0 l/m 0 min 0 min 23 W/m 22,5 km/h (4 Bft) 100,00 %
26.01.2022 10:50 2,3 C 2,2 C -0,6 C 92 % 1033,4 hPa 0,0 l/m 0 min 0 min 25 W/m 19,3 km/h (3 Bft) 100,00 %
26.01.2022 10:52 2,3 C 2,2 C -0,6 C 92 % 1033,3 hPa 0,0 l/m 0 min 0 min 27 W/m 9,7 km/h (2 Bft) 97,87 %
26.01.2022 10:54 2,3 C 2,2 C -0,6 C 92 % 1033,4 hPa 0,0 l/m 0 min 0 min 27 W/m 6,4 km/h (2 Bft) 97,87 %
26.01.2022 10:56 2,3 C 2,2 C -0,6 C 92 % 1033,4 hPa 0,0 l/m 0 min 0 min 32 W/m 12,9 km/h (3 Bft) 100,00 %
26.01.2022 10:58 2,4 C 2,2 C -0,6 C 92 % 1033,4 hPa 0,0 l/m 0 min 0 min 33 W/m 9,7 km/h (2 Bft) 100,00 %
26.01.2022 11:00 2,4 C 2,2 C -0,6 C 92 % 1033,4 hPa 0,0 l/m 0 min 0 min 32 W/m 16,1 km/h (3 Bft) 100,00 %
26.01.2022 11:02 2,3 C 2,2 C -0,6 C 92 % 1033,4 hPa 0,0 l/m 0 min 0 min 35 W/m 16,1 km/h (3 Bft) 100,00 %
26.01.2022 11:04 2,4 C 2,2 C -0,6 C 92 % 1033,3 hPa 0,0 l/m 0 min 0 min 34 W/m 16,1 km/h (3 Bft) 100,00 %
26.01.2022 11:06 2,4 C 2,2 C -0,6 C 92 % 1033,3 hPa 0,0 l/m 0 min 0 min 33 W/m 16,1 km/h (3 Bft) 100,00 %
26.01.2022 11:08 2,3 C 2,2 C -0,6 C 92 % 1033,3 hPa 0,0 l/m 0 min 0 min 34 W/m 16,1 km/h (3 Bft) 97,87 %
26.01.2022 11:10 2,3 C 2,2 C -0,6 C 92 % 1033,2 hPa 0,0 l/m 0 min 0 min 33 W/m 12,9 km/h (3 Bft) 100,00 %
26.01.2022 11:12 2,3 C 2,2 C -0,6 C 92 % 1033,2 hPa 0,0 l/m 0 min 0 min 34 W/m 9,7 km/h (2 Bft) 100,00 %
26.01.2022 11:14 2,3 C 2,2 C -0,6 C 92 % 1033,2 hPa 0,0 l/m 0 min 0 min 36 W/m 9,7 km/h (2 Bft) 97,87 %
26.01.2022 11:16 2,3 C 2,2 C -0,6 C 92 % 1033,2 hPa 0,0 l/m 0 min 0 min 32 W/m 16,1 km/h (3 Bft) 100,00 %
26.01.2022 11:18 2,3 C 2,2 C -0,6 C 92 % 1033,2 hPa 0,0 l/m 0 min 0 min 35 W/m 3,2 km/h (1 Bft) 97,87 %
26.01.2022 11:20 2,3 C 2,2 C -0,6 C 92 % 1033,2 hPa 0,0 l/m 0 min 0 min 33 W/m 16,1 km/h (3 Bft) 100,00 %
26.01.2022 11:22 2,3 C 2,2 C -0,6 C 92 % 1033,2 hPa 0,0 l/m 0 min 0 min 32 W/m 16,1 km/h (3 Bft) 100,00 %
26.01.2022 11:24 2,3 C 2,2 C -0,6 C 92 % 1033,1 hPa 0,0 l/m 0 min 0 min 34 W/m 12,9 km/h (3 Bft) 95,74 %
26.01.2022 11:26 2,3 C 2,2 C -0,6 C 92 % 1033,1 hPa 0,0 l/m 0 min 0 min 37 W/m 12,9 km/h (3 Bft) 97,87 %
26.01.2022 11:28 2,3 C 1,7 C -0,6 C 92 % 1033,1 hPa 0,0 l/m 0 min 0 min 38 W/m 19,3 km/h (3 Bft) 97,87 %
26.01.2022 11:30 2,3 C 1,7 C -0,6 C 92 % 1033,1 hPa 0,0 l/m 0 min 0 min 40 W/m 22,5 km/h (4 Bft) 100,00 %
26.01.2022 11:32 2,3 C 2,2 C -0,6 C 92 % 1033,1 hPa 0,0 l/m 0 min 0 min 41 W/m 16,1 km/h (3 Bft) 97,87 %
26.01.2022 11:34 2,3 C 2,2 C -0,6 C 93 % 1033,1 hPa 0,0 l/m 0 min 0 min 33 W/m 9,7 km/h (2 Bft) 100,00 %
26.01.2022 11:36 2,3 C 2,2 C -0,6 C 93 % 1033,1 hPa 0,0 l/m 0 min 0 min 34 W/m 9,7 km/h (2 Bft) 97,87 %
26.01.2022 11:38 2,3 C 2,2 C -0,6 C 93 % 1033,1 hPa 0,0 l/m 0 min 0 min 40 W/m 6,4 km/h (2 Bft) 100,00 %
26.01.2022 11:40 2,3 C 2,2 C -0,6 C 93 % 1033,2 hPa 0,0 l/m 0 min 0 min 36 W/m 9,7 km/h (2 Bft) 95,74 %
26.01.2022 11:42 2,3 C 2,2 C -0,6 C 93 % 1033,2 hPa 0,0 l/m 0 min 0 min 34 W/m 6,4 km/h (2 Bft) 97,87 %
26.01.2022 11:44 2,3 C 2,2 C -0,6 C 93 % 1033,2 hPa 0,0 l/m 0 min 0 min 35 W/m 9,7 km/h (2 Bft) 95,74 %
26.01.2022 11:46 2,3 C 2,2 C -0,6 C 93 % 1033,1 hPa 0,0 l/m 0 min 0 min 47 W/m 6,4 km/h (2 Bft) 97,83 %
26.01.2022 11:48 2,3 C 2,2 C -0,6 C 93 % 1033,1 hPa 0,0 l/m 0 min 0 min 43 W/m 6,4 km/h (2 Bft) 97,87 %
26.01.2022 11:50 2,4 C 2,2 C -0,6 C 93 % 1033,1 hPa 0,0 l/m 0 min 0 min 42 W/m 3,2 km/h (1 Bft) 97,87 %
26.01.2022 11:52 2,4 C 2,2 C -0,6 C 93 % 1033,0 hPa 0,0 l/m 0 min 0 min 42 W/m 6,4 km/h (2 Bft) 95,74 %
26.01.2022 11:54 2,4 C 2,2 C -0,6 C 93 % 1033,0 hPa 0,0 l/m 0 min 0 min 40 W/m 6,4 km/h (2 Bft) 95,74 %
26.01.2022 11:56 2,4 C 2,2 C -0,6 C 93 % 1033,0 hPa 0,0 l/m 0 min 0 min 37 W/m 6,4 km/h (2 Bft) 95,74 %
26.01.2022 11:58 2,4 C 2,2 C -0,6 C 93 % 1033,2 hPa 0,0 l/m 0 min 0 min 33 W/m 6,4 km/h (2 Bft) 95,65 %
26.01.2022 12:00 2,4 C 2,2 C -0,6 C 93 % 1033,3 hPa 0,0 l/m 0 min 0 min 39 W/m 12,9 km/h (3 Bft) 95,74 %
26.01.2022 12:02 2,4 C 2,2 C -0,6 C 93 % 1033,3 hPa 0,0 l/m 0 min 0 min 42 W/m 6,4 km/h (2 Bft) 94,29 %
26.01.2022 12:04 2,4 C 2,2 C -0,6 C 93 % 1033,3 hPa 0,0 l/m 0 min 0 min 36 W/m 9,7 km/h (2 Bft) 95,74 %
26.01.2022 12:06 2,4 C 2,2 C -0,6 C 93 % 1033,3 hPa 0,0 l/m 0 min 0 min 36 W/m 9,7 km/h (2 Bft) 95,74 %
26.01.2022 12:08 2,4 C 2,2 C -0,6 C 93 % 1033,3 hPa 0,0 l/m 0 min 0 min 40 W/m 16,1 km/h (3 Bft) 95,74 %
26.01.2022 12:10 2,4 C 2,2 C -0,6 C 93 % 1033,2 hPa 0,0 l/m 0 min 0 min 51 W/m 6,4 km/h (2 Bft) 97,87 %
26.01.2022 12:12 2,4 C 2,2 C -0,6 C 93 % 1033,3 hPa 0,0 l/m 0 min 0 min 45 W/m 16,1 km/h (3 Bft) 95,74 %
26.01.2022 12:14 2,4 C 2,2 C -0,6 C 93 % 1033,3 hPa 0,0 l/m 0 min 0 min 36 W/m 12,9 km/h (3 Bft) 95,65 %
26.01.2022 12:16 2,4 C 2,2 C -0,6 C 93 % 1033,3 hPa 0,0 l/m 0 min 0 min 38 W/m 9,7 km/h (2 Bft) 97,87 %
26.01.2022 12:18 2,4 C 2,2 C -0,6 C 93 % 1033,2 hPa 0,0 l/m 0 min 0 min 37 W/m 16,1 km/h (3 Bft) 97,87 %
26.01.2022 12:20 2,4 C 2,2 C -0,6 C 93 % 1033,2 hPa 0,0 l/m 0 min 0 min 38 W/m 6,4 km/h (2 Bft) 97,87 %
26.01.2022 12:22 2,4 C 2,2 C -0,6 C 93 % 1033,3 hPa 0,0 l/m 0 min 0 min 35 W/m 9,7 km/h (2 Bft) 97,87 %
26.01.2022 12:24 2,4 C 2,2 C -0,6 C 93 % 1033,3 hPa 0,0 l/m 0 min 0 min 36 W/m 16,1 km/h (3 Bft) 97,83 %
26.01.2022 12:26 2,4 C 2,2 C -0,6 C 93 % 1033,3 hPa 0,0 l/m 0 min 0 min 35 W/m 12,9 km/h (3 Bft) 97,87 %
26.01.2022 12:28 2,5 C 2,2 C -0,6 C 93 % 1033,2 hPa 0,0 l/m 0 min 0 min 41 W/m 12,9 km/h (3 Bft) 100,00 %
26.01.2022 12:30 2,5 C 2,2 C -0,6 C 93 % 1033,2 hPa 0,0 l/m 0 min 0 min 45 W/m 12,9 km/h (3 Bft) 100,00 %
26.01.2022 12:32 2,5 C 2,2 C -0,6 C 93 % 1033,3 hPa 0,0 l/m 0 min 0 min 44 W/m 6,4 km/h (2 Bft) 100,00 %
26.01.2022 12:34 2,5 C 2,2 C -0,6 C 93 % 1033,3 hPa 0,0 l/m 0 min 0 min 35 W/m 12,9 km/h (3 Bft) 100,00 %
26.01.2022 12:36 2,5 C 2,2 C -0,6 C 93 % 1033,3 hPa 0,0 l/m 0 min 0 min 43 W/m 12,9 km/h (3 Bft) 95,65 %
26.01.2022 12:38 2,5 C 2,2 C -0,6 C 94 % 1033,3 hPa 0,0 l/m 0 min 0 min 45 W/m 9,7 km/h (2 Bft) 100,00 %
26.01.2022 12:40 2,5 C 2,2 C -0,6 C 93 % 1033,3 hPa 0,0 l/m 0 min 0 min 40 W/m 9,7 km/h (2 Bft) 97,87 %
26.01.2022 12:42 2,5 C 2,2 C -0,6 C 93 % 1033,2 hPa 0,0 l/m 0 min 0 min 36 W/m 12,9 km/h (3 Bft) 97,87 %
26.01.2022 12:44 2,5 C 2,2 C -0,6 C 93 % 1033,2 hPa 0,0 l/m 0 min 0 min 35 W/m 6,4 km/h (2 Bft) 100,00 %
26.01.2022 12:46 2,5 C 2,2 C -0,6 C 94 % 1033,2 hPa 0,0 l/m 0 min 0 min 37 W/m 3,2 km/h (1 Bft) 100,00 %
26.01.2022 12:48 2,5 C 2,2 C -0,6 C 94 % 1033,2 hPa 0,0 l/m 0 min 0 min 39 W/m 6,4 km/h (2 Bft) 97,87 %
26.01.2022 12:50 2,5 C 2,2 C -0,6 C 94 % 1033,3 hPa 0,0 l/m 0 min 0 min 38 W/m 9,7 km/h (2 Bft) 97,83 %
26.01.2022 12:52 2,5 C 2,2 C -0,6 C 94 % 1033,3 hPa 0,0 l/m 0 min 0 min 35 W/m 9,7 km/h (2 Bft) 97,87 %
26.01.2022 12:54 2,5 C 2,2 C -0,6 C 94 % 1033,2 hPa 0,0 l/m 0 min 0 min 33 W/m 16,1 km/h (3 Bft) 97,87 %
26.01.2022 12:56 2,4 C 2,2 C -0,6 C 94 % 1033,2 hPa 0,0 l/m 0 min 0 min 34 W/m 12,9 km/h (3 Bft) 97,87 %
26.01.2022 12:58 2,5 C 2,2 C -0,6 C 94 % 1033,1 hPa 0,0 l/m 0 min 0 min 34 W/m 6,4 km/h (2 Bft) 97,87 %
26.01.2022 13:00 2,5 C 2,2 C -0,6 C 94 % 1033,1 hPa 0,0 l/m 0 min 0 min 35 W/m 16,1 km/h (3 Bft) 95,65 %
26.01.2022 13:02 2,4 C 2,2 C -0,6 C 94 % 1033,1 hPa 0,0 l/m 0 min 0 min 39 W/m 3,2 km/h (1 Bft) 97,87 %
26.01.2022 13:04 2,5 C 2,2 C -0,6 C 94 % 1033,1 hPa 0,0 l/m 0 min 0 min 31 W/m 12,9 km/h (3 Bft) 95,74 %
26.01.2022 13:06 2,5 C 2,2 C -0,6 C 94 % 1033,1 hPa 0,0 l/m 0 min 0 min 32 W/m 6,4 km/h (2 Bft) 95,74 %
26.01.2022 13:08 2,5 C 2,2 C -0,6 C 94 % 1033,2 hPa 0,0 l/m 0 min 0 min 34 W/m 9,7 km/h (2 Bft) 97,87 %
26.01.2022 13:10 2,5 C 2,2 C -0,6 C 94 % 1033,1 hPa 0,0 l/m 0 min 0 min 36 W/m 9,7 km/h (2 Bft) 95,74 %
26.01.2022 13:12 2,5 C 2,2 C -0,6 C 94 % 1033,1 hPa 0,0 l/m 0 min 0 min 39 W/m 6,4 km/h (2 Bft) 95,65 %
26.01.2022 13:14 2,5 C 2,2 C -0,6 C 94 % 1033,1 hPa 0,0 l/m 0 min 0 min 40 W/m 12,9 km/h (3 Bft) 95,74 %
26.01.2022 13:16 2,5 C 2,2 C -0,6 C 94 % 1033,1 hPa 0,0 l/m 0 min 0 min 40 W/m 9,7 km/h (2 Bft) 95,74 %
26.01.2022 13:18 2,5 C 2,2 C -0,6 C 94 % 1033,1 hPa 0,0 l/m 0 min 0 min 46 W/m 12,9 km/h (3 Bft) 97,87 %
26.01.2022 13:20 2,6 C 2,2 C -0,6 C 94 % 1033,1 hPa 0,0 l/m 0 min 0 min 46 W/m 6,4 km/h (2 Bft) 97,87 %
26.01.2022 13:22 2,6 C 2,2 C 0,0 C 94 % 1032,9 hPa 0,0 l/m 0 min 0 min 56 W/m 12,9 km/h (3 Bft) 97,87 %
26.01.2022 13:24 2,6 C 2,2 C 0,0 C 94 % 1032,9 hPa 0,0 l/m 0 min 0 min 53 W/m 12,9 km/h (3 Bft) 95,65 %
26.01.2022 13:26 2,6 C 2,2 C 0,0 C 94 % 1032,9 hPa 0,0 l/m 0 min 0 min 49 W/m 19,3 km/h (3 Bft) 93,62 %
26.01.2022 13:28 2,6 C 2,2 C 0,0 C 94 % 1032,8 hPa 0,0 l/m 0 min 0 min 47 W/m 9,7 km/h (2 Bft) 97,87 %
26.01.2022 13:30 2,6 C 2,2 C 0,0 C 94 % 1032,7 hPa 0,0 l/m 0 min 0 min 51 W/m 16,1 km/h (3 Bft) 97,87 %
26.01.2022 13:32 2,6 C 2,2 C 0,0 C 94 % 1032,7 hPa 0,0 l/m 0 min 0 min 49 W/m 12,9 km/h (3 Bft) 97,87 %
26.01.2022 13:34 2,6 C 2,2 C 0,0 C 94 % 1032,8 hPa 0,0 l/m 0 min 0 min 49 W/m 9,7 km/h (2 Bft) 97,87 %
26.01.2022 13:36 2,6 C 2,2 C 0,0 C 94 % 1032,7 hPa 0,0 l/m 0 min 0 min 42 W/m 16,1 km/h (3 Bft) 95,65 %
26.01.2022 13:38 2,6 C 2,2 C 0,0 C 94 % 1032,7 hPa 0,0 l/m 0 min 0 min 46 W/m 12,9 km/h (3 Bft) 100,00 %
26.01.2022 13:40 2,6 C 2,2 C 0,0 C 94 % 1032,7 hPa 0,0 l/m 0 min 0 min 48 W/m 16,1 km/h (3 Bft) 100,00 %
26.01.2022 13:42 2,6 C 2,2 C 0,0 C 94 % 1032,6 hPa 0,0 l/m 0 min 0 min 56 W/m 22,5 km/h (4 Bft) 100,00 %
26.01.2022 13:44 2,6 C 2,2 C 0,0 C 94 % 1032,6 hPa 0,0 l/m 0 min 0 min 61 W/m 16,1 km/h (3 Bft) 97,87 %
26.01.2022 13:46 2,6 C 2,2 C 0,0 C 94 % 1032,7 hPa 0,0 l/m 0 min 0 min 60 W/m 6,4 km/h (2 Bft) 97,87 %
26.01.2022 13:48 2,6 C 2,2 C 0,0 C 94 % 1032,6 hPa 0,0 l/m 0 min 0 min 55 W/m 9,7 km/h (2 Bft) 100,00 %
26.01.2022 13:50 2,6 C 2,2 C 0,0 C 94 % 1032,6 hPa 0,0 l/m 0 min 0 min 48 W/m 12,9 km/h (3 Bft) 100,00 %
26.01.2022 13:52 2,7 C 2,2 C 0,0 C 94 % 1032,6 hPa 0,0 l/m 0 min 0 min 40 W/m 9,7 km/h (2 Bft) 100,00 %
26.01.2022 13:54 2,7 C 2,2 C 0,0 C 94 % 1032,6 hPa 0,0 l/m 0 min 0 min 39 W/m 12,9 km/h (3 Bft) 95,65 %
26.01.2022 13:56 2,7 C 2,2 C 0,0 C 94 % 1032,7 hPa 0,0 l/m 0 min 0 min 44 W/m 3,2 km/h (1 Bft) 97,87 %
26.01.2022 13:58 2,7 C 2,8 C 0,0 C 94 % 1032,7 hPa 0,0 l/m 0 min 0 min 47 W/m 12,9 km/h (3 Bft) 97,87 %
26.01.2022 14:00 2,7 C 2,2 C 0,0 C 94 % 1032,8 hPa 0,0 l/m 0 min 0 min 44 W/m 12,9 km/h (3 Bft) 95,74 %
26.01.2022 14:02 2,7 C 2,2 C 0,0 C 94 % 1032,8 hPa 0,0 l/m 0 min 0 min 49 W/m 12,9 km/h (3 Bft) 97,92 %
26.01.2022 14:04 2,7 C 2,8 C 0,0 C 94 % 1032,9 hPa 0,0 l/m 0 min 0 min 44 W/m 6,4 km/h (2 Bft) 97,83 %
26.01.2022 14:06 2,7 C 2,8 C 0,0 C 94 % 1032,8 hPa 0,0 l/m 0 min 0 min 54 W/m 12,9 km/h (3 Bft) 97,87 %
26.01.2022 14:08 2,7 C 2,8 C 0,0 C 94 % 1032,8 hPa 0,0 l/m 0 min 0 min 57 W/m 6,4 km/h (2 Bft) 97,87 %
26.01.2022 14:10 2,7 C 2,8 C 0,0 C 94 % 1032,7 hPa 0,0 l/m 0 min 0 min 44 W/m 6,4 km/h (2 Bft) 93,62 %
26.01.2022 14:12 2,7 C 2,2 C 0,0 C 94 % 1032,7 hPa 0,0 l/m 0 min 0 min 41 W/m 6,4 km/h (2 Bft) 97,87 %
26.01.2022 14:14 2,7 C 2,2 C 0,0 C 94 % 1032,7 hPa 0,0 l/m 0 min 0 min 29 W/m 9,7 km/h (2 Bft) 93,62 %
26.01.2022 14:16 2,8 C 2,2 C 0,0 C 94 % 1032,7 hPa 0,0 l/m 0 min 0 min 26 W/m 6,4 km/h (2 Bft) 93,48 %
26.01.2022 14:18 2,8 C 2,2 C 0,0 C 94 % 1032,6 hPa 0,0 l/m 0 min 0 min 32 W/m 16,1 km/h (3 Bft) 95,74 %
26.01.2022 14:20 2,7 C 2,2 C 0,0 C 94 % 1032,6 hPa 0,0 l/m 0 min 0 min 30 W/m 6,4 km/h (2 Bft) 95,74 %
26.01.2022 14:22 2,7 C 2,2 C 0,0 C 94 % 1032,6 hPa 0,0 l/m 0 min 0 min 32 W/m 12,9 km/h (3 Bft) 95,74 %
26.01.2022 14:24 2,7 C 2,2 C 0,0 C 94 % 1032,6 hPa 0,0 l/m 0 min 0 min 44 W/m 16,1 km/h (3 Bft) 95,74 %
26.01.2022 14:26 2,7 C 2,2 C 0,0 C 94 % 1032,6 hPa 0,0 l/m 0 min 0 min 43 W/m 12,9 km/h (3 Bft) 93,62 %
26.01.2022 14:28 2,7 C 2,2 C 0,0 C 94 % 1032,6 hPa 0,0 l/m 0 min 0 min 45 W/m 6,4 km/h (2 Bft) 95,65 %
26.01.2022 14:30 2,7 C 2,2 C 0,0 C 94 % 1032,5 hPa 0,0 l/m 0 min 0 min 41 W/m 16,1 km/h (3 Bft) 97,87 %
26.01.2022 14:32 2,7 C 2,2 C 0,0 C 94 % 1032,5 hPa 0,0 l/m 0 min 0 min 44 W/m 6,4 km/h (2 Bft) 100,00 %
26.01.2022 14:34 2,7 C 2,2 C 0,0 C 94 % 1032,4 hPa 0,0 l/m 0 min 0 min 49 W/m 12,9 km/h (3 Bft) 97,87 %
26.01.2022 14:36 2,7 C 2,2 C 0,0 C 94 % 1032,4 hPa 0,0 l/m 0 min 0 min 40 W/m 9,7 km/h (2 Bft) 97,87 %
26.01.2022 14:38 2,7 C 2,2 C 0,0 C 94 % 1032,3 hPa 0,0 l/m 0 min 0 min 32 W/m 12,9 km/h (3 Bft) 97,87 %
26.01.2022 14:40 2,7 C 2,2 C 0,0 C 94 % 1032,3 hPa 0,0 l/m 0 min 0 min 30 W/m 9,7 km/h (2 Bft) 97,83 %
26.01.2022 14:42 2,7 C 2,2 C 0,0 C 94 % 1032,3 hPa 0,0 l/m 0 min 0 min 28 W/m 9,7 km/h (2 Bft) 97,87 %
26.01.2022 14:44 2,7 C 2,2 C 0,0 C 94 % 1032,3 hPa 0,0 l/m 0 min 0 min 27 W/m 9,7 km/h (2 Bft) 97,87 %
26.01.2022 14:46 2,7 C 2,2 C 0,0 C 94 % 1032,2 hPa 0,0 l/m 0 min 0 min 32 W/m 12,9 km/h (3 Bft) 97,87 %
26.01.2022 14:48 2,7 C 2,2 C 0,0 C 94 % 1032,1 hPa 0,0 l/m 0 min 0 min 33 W/m 16,1 km/h (3 Bft) 97,87 %
26.01.2022 14:50 2,7 C 2,2 C 0,0 C 94 % 1032,1 hPa 0,0 l/m 0 min 0 min 33 W/m 16,1 km/h (3 Bft) 97,87 %
26.01.2022 14:52 2,7 C 2,2 C 0,0 C 94 % 1032,1 hPa 0,0 l/m 0 min 0 min 32 W/m 16,1 km/h (3 Bft) 95,65 %
26.01.2022 14:54 2,7 C 2,2 C 0,0 C 94 % 1032,2 hPa 0,0 l/m 0 min 0 min 27 W/m 19,3 km/h (3 Bft) 95,74 %
26.01.2022 14:56 2,7 C 2,2 C 0,0 C 94 % 1032,2 hPa 0,0 l/m 0 min 0 min 24 W/m 16,1 km/h (3 Bft) 97,87 %
26.01.2022 14:58 2,7 C 2,2 C 0,0 C 94 % 1032,1 hPa 0,0 l/m 0 min 0 min 35 W/m 6,4 km/h (2 Bft) 97,87 %
26.01.2022 15:00 2,7 C 2,2 C 0,0 C 94 % 1032,2 hPa 0,0 l/m 0 min 0 min 32 W/m 9,7 km/h (2 Bft) 97,87 %
26.01.2022 15:02 2,7 C 2,2 C 0,0 C 94 % 1032,1 hPa 0,0 l/m 0 min 0 min 38 W/m 12,9 km/h (3 Bft) 97,87 %
26.01.2022 15:04 2,7 C 2,2 C 0,0 C 94 % 1032,0 hPa 0,0 l/m 0 min 0 min 40 W/m 19,3 km/h (3 Bft) 100,00 %
26.01.2022 15:06 2,7 C 2,2 C 0,0 C 94 % 1032,0 hPa 0,0 l/m 0 min 0 min 35 W/m 12,9 km/h (3 Bft) 100,00 %
26.01.2022 15:08 2,7 C 2,2 C 0,0 C 94 % 1032,1 hPa 0,0 l/m 0 min 0 min 33 W/m 12,9 km/h (3 Bft) 100,00 %
26.01.2022 15:10 2,7 C 2,2 C 0,0 C 94 % 1032,0 hPa 0,0 l/m 0 min 0 min 32 W/m 22,5 km/h (4 Bft) 100,00 %
26.01.2022 15:12 2,7 C 2,2 C 0,0 C 94 % 1032,0 hPa 0,0 l/m 0 min 0 min 30 W/m 12,9 km/h (3 Bft) 57,45 %
26.01.2022 15:14 2,7 C 2,2 C 0,0 C 94 % 1032,0 hPa 0,0 l/m 0 min 0 min 27 W/m 16,1 km/h (3 Bft) 100,00 %
26.01.2022 15:16 2,7 C 2,2 C 0,0 C 94 % 1032,0 hPa 0,0 l/m 0 min 0 min 28 W/m 16,1 km/h (3 Bft) 100,00 %
26.01.2022 15:18 2,7 C 2,2 C 0,0 C 94 % 1032,0 hPa 0,0 l/m 0 min 0 min 29 W/m 16,1 km/h (3 Bft) 100,00 %
26.01.2022 15:20 2,7 C 2,2 C 0,0 C 94 % 1031,9 hPa 0,0 l/m 0 min 0 min 30 W/m 25,7 km/h (4 Bft) 100,00 %
26.01.2022 15:22 2,7 C 2,2 C 0,0 C 94 % 1031,8 hPa 0,0 l/m 0 min 0 min 32 W/m 19,3 km/h (3 Bft) 100,00 %
26.01.2022 15:24 2,7 C 2,2 C 0,0 C 94 % 1031,8 hPa 0,0 l/m 0 min 0 min 28 W/m 22,5 km/h (4 Bft) 100,00 %
26.01.2022 15:26 2,7 C 2,2 C 0,0 C 94 % 1031,9 hPa 0,0 l/m 0 min 0 min 28 W/m 12,9 km/h (3 Bft) 97,87 %
26.01.2022 15:28 2,7 C 2,2 C 0,0 C 94 % 1031,8 hPa 0,0 l/m 0 min 0 min 26 W/m 19,3 km/h (3 Bft) 100,00 %
26.01.2022 15:30 2,7 C 2,2 C 0,0 C 94 % 1031,8 hPa 0,0 l/m 0 min 0 min 26 W/m 12,9 km/h (3 Bft) 100,00 %
26.01.2022 15:32 2,7 C 2,2 C 0,0 C 94 % 1031,9 hPa 0,0 l/m 0 min 0 min 26 W/m 12,9 km/h (3 Bft) 100,00 %
26.01.2022 15:34 2,7 C 2,2 C 0,0 C 94 % 1031,9 hPa 0,0 l/m 0 min 0 min 26 W/m 12,9 km/h (3 Bft) 100,00 %
26.01.2022 15:36 2,7 C 2,2 C 0,0 C 94 % 1031,9 hPa 0,0 l/m 0 min 0 min 26 W/m 12,9 km/h (3 Bft) 100,00 %
26.01.2022 15:38 2,8 C 2,2 C 0,0 C 94 % 1032,0 hPa 0,0 l/m 0 min 0 min 25 W/m 12,9 km/h (3 Bft) 100,00 %
26.01.2022 15:40 2,8 C 2,8 C 0,0 C 94 % 1031,9 hPa 0,0 l/m 0 min 0 min 25 W/m 6,4 km/h (2 Bft) 97,83 %
26.01.2022 15:42 2,8 C 2,8 C 0,0 C 94 % 1031,9 hPa 0,0 l/m 0 min 0 min 25 W/m 12,9 km/h (3 Bft) 93,62 %
26.01.2022 15:44 2,8 C 2,8 C 0,0 C 94 % 1032,0 hPa 0,0 l/m 0 min 0 min 25 W/m 6,4 km/h (2 Bft) 97,87 %
26.01.2022 15:46 2,8 C 2,8 C 0,0 C 94 % 1032,0 hPa 0,0 l/m 0 min 0 min 23 W/m 6,4 km/h (2 Bft) 97,87 %
26.01.2022 15:48 2,8 C 2,8 C 0,0 C 94 % 1032,0 hPa 0,0 l/m 0 min 0 min 21 W/m 6,4 km/h (2 Bft) 97,87 %
26.01.2022 15:50 2,8 C 2,8 C 0,0 C 94 % 1032,0 hPa 0,0 l/m 0 min 0 min 21 W/m 12,9 km/h (3 Bft) 95,65 %
26.01.2022 15:52 2,8 C 2,8 C 0,0 C 94 % 1032,0 hPa 0,0 l/m 0 min 0 min 20 W/m 12,9 km/h (3 Bft) 91,49 %
26.01.2022 15:54 2,8 C 2,8 C 0,0 C 94 % 1032,0 hPa 0,0 l/m 0 min 0 min 20 W/m 12,9 km/h (3 Bft) 95,74 %
26.01.2022 15:56 2,8 C 2,8 C 0,0 C 94 % 1031,9 hPa 0,0 l/m 0 min 0 min 21 W/m 6,4 km/h (2 Bft) 95,74 %
26.01.2022 15:58 2,8 C 2,8 C 0,0 C 94 % 1032,0 hPa 0,0 l/m 0 min 0 min 21 W/m 9,7 km/h (2 Bft) 93,62 %
26.01.2022 16:00 2,8 C 2,8 C 0,0 C 94 % 1032,0 hPa 0,0 l/m 0 min 0 min 18 W/m 9,7 km/h (2 Bft) 95,74 %
26.01.2022 16:02 2,8 C 2,8 C 0,0 C 94 % 1032,0 hPa 0,0 l/m 0 min 0 min 18 W/m 9,7 km/h (2 Bft) 95,65 %
26.01.2022 16:04 2,8 C 2,8 C 0,0 C 94 % 1032,0 hPa 0,0 l/m 0 min 0 min 19 W/m 6,4 km/h (2 Bft) 95,74 %
26.01.2022 16:06 2,8 C 2,8 C 0,0 C 94 % 1031,9 hPa 0,0 l/m 0 min 0 min 18 W/m 9,7 km/h (2 Bft) 95,74 %
26.01.2022 16:08 2,8 C 2,8 C 0,0 C 94 % 1031,9 hPa 0,0 l/m 0 min 0 min 18 W/m 9,7 km/h (2 Bft) 55,32 %
26.01.2022 16:10 2,9 C 2,8 C 0,0 C 94 % 1031,9 hPa 0,0 l/m 0 min 0 min 18 W/m 6,4 km/h (2 Bft) 95,74 %
26.01.2022 16:12 2,9 C 2,8 C 0,0 C 94 % 1031,9 hPa 0,0 l/m 0 min 0 min 16 W/m 9,7 km/h (2 Bft) 95,74 %
26.01.2022 16:14 2,9 C 2,8 C 0,0 C 94 % 1032,0 hPa 0,0 l/m 0 min 0 min 16 W/m 6,4 km/h (2 Bft) 91,30 %
26.01.2022 16:16 2,9 C 2,8 C 0,0 C 94 % 1032,0 hPa 0,0 l/m 0 min 0 min 14 W/m 9,7 km/h (2 Bft) 95,74 %
26.01.2022 16:18 2,9 C 2,8 C 0,0 C 94 % 1032,0 hPa 0,0 l/m 0 min 0 min 14 W/m 9,7 km/h (2 Bft) 95,74 %
26.01.2022 16:20 2,9 C 2,8 C 0,0 C 94 % 1032,0 hPa 0,0 l/m 0 min 0 min 15 W/m 6,4 km/h (2 Bft) 95,74 %
26.01.2022 16:22 2,9 C 2,8 C 0,0 C 94 % 1032,0 hPa 0,0 l/m 0 min 0 min 17 W/m 9,7 km/h (2 Bft) 97,87 %
26.01.2022 16:24 2,9 C 2,8 C 0,0 C 94 % 1032,0 hPa 0,0 l/m 0 min 0 min 16 W/m 9,7 km/h (2 Bft) 97,87 %
26.01.2022 16:26 2,9 C 2,8 C 0,0 C 94 % 1031,9 hPa 0,0 l/m 0 min 0 min 16 W/m 9,7 km/h (2 Bft) 97,83 %
26.01.2022 16:28 2,9 C 2,8 C 0,0 C 93 % 1031,8 hPa 0,0 l/m 0 min 0 min 15 W/m 6,4 km/h (2 Bft) 97,87 %
26.01.2022 16:30 2,9 C 2,8 C 0,0 C 93 % 1031,9 hPa 0,0 l/m 0 min 0 min 14 W/m 3,2 km/h (1 Bft) 97,87 %
26.01.2022 16:32 2,9 C 2,8 C 0,0 C 93 % 1031,9 hPa 0,0 l/m 0 min 0 min 12 W/m 6,4 km/h (2 Bft) 100,00 %
26.01.2022 16:34 2,9 C 2,8 C 0,0 C 93 % 1031,9 hPa 0,0 l/m 0 min 0 min 12 W/m 12,9 km/h (3 Bft) 95,74 %
26.01.2022 16:36 2,9 C 2,8 C 0,0 C 93 % 1031,9 hPa 0,0 l/m 0 min 0 min 11 W/m 9,7 km/h (2 Bft) 100,00 %
26.01.2022 16:38 2,9 C 2,8 C 0,0 C 93 % 1031,9 hPa 0,0 l/m 0 min 0 min 9 W/m 12,9 km/h (3 Bft) 100,00 %
26.01.2022 16:40 2,9 C 2,8 C 0,0 C 93 % 1031,9 hPa 0,0 l/m 0 min 0 min 9 W/m 3,2 km/h (1 Bft) 100,00 %
26.01.2022 16:42 2,9 C 2,8 C 0,0 C 93 % 1032,0 hPa 0,0 l/m 0 min 0 min 8 W/m 9,7 km/h (2 Bft) 97,87 %
26.01.2022 16:44 2,9 C 2,8 C 0,0 C 93 % 1032,0 hPa 0,0 l/m 0 min 0 min 7 W/m 9,7 km/h (2 Bft) 100,00 %
26.01.2022 16:46 2,9 C 2,8 C 0,0 C 93 % 1032,0 hPa 0,0 l/m 0 min 0 min 7 W/m 19,3 km/h (3 Bft) 97,87 %
26.01.2022 16:48 2,9 C 2,8 C 0,0 C 93 % 1031,9 hPa 0,0 l/m 0 min 0 min 7 W/m 19,3 km/h (3 Bft) 100,00 %
26.01.2022 16:50 2,9 C 2,8 C 0,0 C 93 % 1032,0 hPa 0,0 l/m 0 min 0 min 7 W/m 12,9 km/h (3 Bft) 100,00 %
26.01.2022 16:52 2,9 C 2,8 C 0,0 C 93 % 1031,9 hPa 0,0 l/m 0 min 0 min 5 W/m 16,1 km/h (3 Bft) 97,87 %
26.01.2022 16:54 2,9 C 2,8 C 0,0 C 93 % 1031,9 hPa 0,0 l/m 0 min 0 min 5 W/m 6,4 km/h (2 Bft) 100,00 %
26.01.2022 16:56 2,9 C 2,8 C 0,0 C 93 % 1031,9 hPa 0,0 l/m 0 min 0 min 4 W/m 6,4 km/h (2 Bft) 97,87 %
26.01.2022 16:58 2,9 C 2,8 C 0,0 C 93 % 1031,9 hPa 0,0 l/m 0 min 0 min 0 W/m 12,9 km/h (3 Bft) 97,87 %
26.01.2022 17:00 2,9 C 2,8 C 0,0 C 93 % 1031,9 hPa 0,0 l/m 0 min 0 min 0 W/m 19,3 km/h (3 Bft) 100,00 %
26.01.2022 17:02 2,9 C 2,8 C 0,0 C 93 % 1031,9 hPa 0,0 l/m 0 min 0 min 0 W/m 12,9 km/h (3 Bft) 95,65 %
26.01.2022 17:04 2,9 C 2,8 C 0,0 C 93 % 1031,9 hPa 0,0 l/m 0 min 0 min 0 W/m 9,7 km/h (2 Bft) 53,33 %
26.01.2022 17:06 2,9 C 2,8 C 0,0 C 93 % 1031,9 hPa 0,0 l/m 0 min 0 min 0 W/m 19,3 km/h (3 Bft) 100,00 %
26.01.2022 17:08 2,9 C 2,8 C 0,0 C 93 % 1032,0 hPa 0,0 l/m 0 min 0 min 0 W/m 19,3 km/h (3 Bft) 97,87 %
26.01.2022 17:10 2,9 C 2,2 C 0,0 C 93 % 1032,0 hPa 0,0 l/m 0 min 0 min 0 W/m 12,9 km/h (3 Bft) 100,00 %
26.01.2022 17:12 2,9 C 2,2 C 0,0 C 93 % 1032,0 hPa 0,0 l/m 0 min 0 min 0 W/m 12,9 km/h (3 Bft) 100,00 %
26.01.2022 17:14 2,9 C 2,2 C 0,0 C 93 % 1031,9 hPa 0,0 l/m 0 min 0 min 0 W/m 16,1 km/h (3 Bft) 95,74 %
26.01.2022 17:16 2,9 C 2,2 C 0,0 C 93 % 1031,9 hPa 0,0 l/m 0 min 0 min 0 W/m 12,9 km/h (3 Bft) 97,87 %
26.01.2022 17:18 2,9 C 2,2 C 0,0 C 93 % 1031,9 hPa 0,0 l/m 0 min 0 min 0 W/m 25,7 km/h (4 Bft) 97,87 %
26.01.2022 17:20 2,9 C 2,2 C 0,0 C 93 % 1031,9 hPa 0,0 l/m 0 min 0 min 0 W/m 25,7 km/h (4 Bft) 97,87 %
26.01.2022 17:22 2,9 C 2,2 C 0,0 C 93 % 1031,8 hPa 0,0 l/m 0 min 0 min 0 W/m 16,1 km/h (3 Bft) 97,87 %
26.01.2022 17:24 2,9 C 2,2 C 0,0 C 93 % 1031,8 hPa 0,0 l/m 0 min 0 min 0 W/m 19,3 km/h (3 Bft) 93,48 %
26.01.2022 17:26 2,9 C 2,2 C 0,0 C 93 % 1031,9 hPa 0,0 l/m 0 min 0 min 0 W/m 12,9 km/h (3 Bft) 97,87 %
26.01.2022 17:28 2,9 C 2,2 C 0,0 C 93 % 1031,9 hPa 0,0 l/m 0 min 0 min 0 W/m 9,7 km/h (2 Bft) 95,74 %
26.01.2022 17:30 2,9 C 2,2 C 0,0 C 93 % 1031,8 hPa 0,0 l/m 0 min 0 min 0 W/m 22,5 km/h (4 Bft) 97,87 %
26.01.2022 17:32 2,9 C 2,2 C 0,0 C 93 % 1031,8 hPa 0,0 l/m 0 min 0 min 0 W/m 22,5 km/h (4 Bft) 95,74 %
26.01.2022 17:34 2,9 C 2,2 C 0,0 C 93 % 1031,8 hPa 0,0 l/m 0 min 0 min 0 W/m 25,7 km/h (4 Bft) 97,87 %
26.01.2022 17:36 2,9 C 2,2 C 0,0 C 93 % 1031,8 hPa 0,0 l/m 0 min 0 min 0 W/m 6,4 km/h (2 Bft) 97,83 %
26.01.2022 17:38 2,8 C 2,2 C 0,0 C 93 % 1031,9 hPa 0,0 l/m 0 min 0 min 0 W/m 16,1 km/h (3 Bft) 97,87 %
26.01.2022 17:40 2,8 C 2,2 C 0,0 C 93 % 1031,8 hPa 0,0 l/m 0 min 0 min 0 W/m 19,3 km/h (3 Bft) 97,87 %
26.01.2022 17:42 2,8 C 2,2 C 0,0 C 93 % 1031,8 hPa 0,0 l/m 0 min 0 min 0 W/m 22,5 km/h (4 Bft) 97,87 %
26.01.2022 17:44 2,8 C 2,2 C 0,0 C 93 % 1031,7 hPa 0,0 l/m 0 min 0 min 0 W/m 16,1 km/h (3 Bft) 100,00 %
26.01.2022 17:46 2,8 C 2,2 C 0,0 C 93 % 1031,8 hPa 0,0 l/m 0 min 0 min 0 W/m 12,9 km/h (3 Bft) 97,87 %
26.01.2022 17:48 2,8 C 2,2 C 0,0 C 93 % 1031,7 hPa 0,0 l/m 0 min 0 min 0 W/m 16,1 km/h (3 Bft) 97,83 %
26.01.2022 17:50 2,8 C 2,2 C 0,0 C 93 % 1031,8 hPa 0,0 l/m 0 min 0 min 0 W/m 22,5 km/h (4 Bft) 97,87 %
26.01.2022 17:52 2,8 C 2,2 C 0,0 C 93 % 1031,8 hPa 0,0 l/m 0 min 0 min 0 W/m 16,1 km/h (3 Bft) 97,87 %
26.01.2022 17:54 2,8 C 2,2 C 0,0 C 93 % 1031,7 hPa 0,0 l/m 0 min 0 min 0 W/m 16,1 km/h (3 Bft) 97,87 %
26.01.2022 17:56 2,8 C 2,2 C 0,0 C 93 % 1031,7 hPa 0,0 l/m 0 min 0 min 0 W/m 16,1 km/h (3 Bft) 97,87 %
26.01.2022 17:58 2,8 C 2,2 C 0,0 C 93 % 1031,7 hPa 0,0 l/m 0 min 0 min 0 W/m 12,9 km/h (3 Bft) 97,87 %
26.01.2022 18:00 2,8 C 2,2 C 0,0 C 93 % 1031,7 hPa 0,0 l/m 0 min 0 min 0 W/m 12,9 km/h (3 Bft) 97,83 %
26.01.2022 18:02 2,8 C 2,2 C 0,0 C 93 % 1031,7 hPa 0,0 l/m 0 min 0 min 0 W/m 25,7 km/h (4 Bft) 97,87 %
26.01.2022 18:04 2,7 C 2,2 C 0,0 C 93 % 1031,7 hPa 0,0 l/m 0 min 0 min 0 W/m 25,7 km/h (4 Bft) 97,87 %
26.01.2022 18:08 2,7 C 2,2 C 0,0 C 93 % 1031,6 hPa 0,0 l/m 0 min 0 min 0 W/m 22,5 km/h (4 Bft) 96,88 %
26.01.2022 18:10 2,7 C 2,2 C 0,0 C 93 % 1031,7 hPa 0,0 l/m 0 min 0 min 0 W/m 29,0 km/h (5 Bft) 97,87 %
26.01.2022 18:12 2,7 C 2,2 C 0,0 C 93 % 1031,7 hPa 0,0 l/m 0 min 0 min 0 W/m 19,3 km/h (3 Bft) 95,65 %
26.01.2022 18:14 2,7 C 2,2 C 0,0 C 93 % 1031,7 hPa 0,0 l/m 0 min 0 min 0 W/m 12,9 km/h (3 Bft) 95,74 %
26.01.2022 18:16 2,7 C 2,2 C 0,0 C 93 % 1031,6 hPa 0,0 l/m 0 min 0 min 0 W/m 16,1 km/h (3 Bft) 100,00 %
26.01.2022 18:18 2,7 C 2,2 C 0,0 C 93 % 1031,5 hPa 0,0 l/m 0 min 0 min 0 W/m 19,3 km/h (3 Bft) 100,00 %
26.01.2022 18:20 2,6 C 2,2 C 0,0 C 93 % 1031,6 hPa 0,0 l/m 0 min 0 min 0 W/m 35,4 km/h (5 Bft) 100,00 %
26.01.2022 18:22 2,6 C 2,2 C 0,0 C 93 % 1031,6 hPa 0,0 l/m 0 min 0 min 0 W/m 19,3 km/h (3 Bft) 100,00 %
26.01.2022 18:24 2,6 C 2,2 C 0,0 C 93 % 1031,6 hPa 0,0 l/m 0 min 0 min 0 W/m 25,7 km/h (4 Bft) 100,00 %
26.01.2022 18:26 2,6 C 2,2 C 0,0 C 93 % 1031,6 hPa 0,0 l/m 0 min 0 min 0 W/m 19,3 km/h (3 Bft) 100,00 %
26.01.2022 18:28 2,6 C 2,2 C 0,0 C 93 % 1031,6 hPa 0,0 l/m 0 min 0 min 0 W/m 19,3 km/h (3 Bft) 100,00 %
26.01.2022 18:30 2,6 C 2,2 C 0,0 C 93 % 1031,6 hPa 0,0 l/m 0 min 0 min 0 W/m 12,9 km/h (3 Bft) 100,00 %
26.01.2022 18:32 2,6 C 2,2 C 0,0 C 93 % 1031,6 hPa 0,0 l/m 0 min 0 min 0 W/m 12,9 km/h (3 Bft) 100,00 %
26.01.2022 18:34 2,6 C 2,2 C 0,0 C 93 % 1031,6 hPa 0,0 l/m 0 min 0 min 0 W/m 12,9 km/h (3 Bft) 100,00 %
26.01.2022 18:36 2,6 C 2,2 C 0,0 C 93 % 1031,7 hPa 0,0 l/m 0 min 0 min 0 W/m 9,7 km/h (2 Bft) 100,00 %
26.01.2022 18:38 2,6 C 2,2 C 0,0 C 93 % 1031,6 hPa 0,0 l/m 0 min 0 min 0 W/m 12,9 km/h (3 Bft) 100,00 %
26.01.2022 18:40 2,6 C 2,2 C 0,0 C 93 % 1031,6 hPa 0,0 l/m 0 min 0 min 0 W/m 19,3 km/h (3 Bft) 97,87 %
26.01.2022 18:42 2,6 C 2,2 C 0,0 C 93 % 1031,7 hPa 0,0 l/m 0 min 0 min 0 W/m 12,9 km/h (3 Bft) 97,87 %
26.01.2022 18:44 2,6 C 2,2 C 0,0 C 93 % 1031,7 hPa 0,0 l/m 0 min 0 min 0 W/m 12,9 km/h (3 Bft) 97,87 %
26.01.2022 18:46 2,6 C 2,2 C 0,0 C 93 % 1031,6 hPa 0,0 l/m 0 min 0 min 0 W/m 12,9 km/h (3 Bft) 97,87 %
26.01.2022 18:48 2,6 C 2,2 C 0,0 C 93 % 1031,7 hPa 0,0 l/m 0 min 0 min 0 W/m 9,7 km/h (2 Bft) 95,65 %
26.01.2022 18:50 2,6 C 2,2 C 0,0 C 93 % 1031,7 hPa 0,0 l/m 0 min 0 min 0 W/m 22,5 km/h (4 Bft) 95,74 %
26.01.2022 18:52 2,6 C 2,2 C -0,6 C 93 % 1031,7 hPa 0,0 l/m 0 min 0 min 0 W/m 19,3 km/h (3 Bft) 95,74 %
26.01.2022 18:54 2,5 C 2,2 C -0,6 C 93 % 1031,6 hPa 0,0 l/m 0 min 0 min 0 W/m 25,7 km/h (4 Bft) 97,87 %
26.01.2022 18:56 2,5 C 2,2 C -0,6 C 93 % 1031,6 hPa 0,0 l/m 0 min 0 min 0 W/m 22,5 km/h (4 Bft) 97,87 %
26.01.2022 18:58 2,5 C 2,2 C -0,6 C 93 % 1031,5 hPa 0,0 l/m 0 min 0 min 0 W/m 16,1 km/h (3 Bft) 97,83 %
26.01.2022 19:00 2,5 C 2,2 C 0,0 C 93 % 1031,6 hPa 0,0 l/m 0 min 0 min 0 W/m 12,9 km/h (3 Bft) 97,87 %
26.01.2022 19:02 2,5 C 2,2 C 0,0 C 93 % 1031,6 hPa 0,0 l/m 0 min 0 min 0 W/m 16,1 km/h (3 Bft) 97,87 %
26.01.2022 19:04 2,6 C 2,2 C 0,0 C 93 % 1031,6 hPa 0,0 l/m 0 min 0 min 0 W/m 19,3 km/h (3 Bft) 97,87 %
26.01.2022 19:06 2,6 C 2,2 C 0,0 C 93 % 1031,6 hPa 0,0 l/m 0 min 0 min 0 W/m 12,9 km/h (3 Bft) 97,87 %
26.01.2022 19:08 2,6 C 2,2 C 0,0 C 93 % 1031,6 hPa 0,0 l/m 0 min 0 min 0 W/m 12,9 km/h (3 Bft) 95,74 %
26.01.2022 19:10 2,6 C 2,2 C 0,0 C 93 % 1031,5 hPa 0,0 l/m 0 min 0 min 0 W/m 19,3 km/h (3 Bft) 97,83 %
26.01.2022 19:12 2,6 C 2,2 C 0,0 C 93 % 1031,5 hPa 0,0 l/m 0 min 0 min 0 W/m 16,1 km/h (3 Bft) 97,87 %
26.01.2022 19:14 2,6 C 2,2 C 0,0 C 93 % 1031,5 hPa 0,0 l/m 0 min 0 min 0 W/m 29,0 km/h (5 Bft) 97,87 %
26.01.2022 19:16 2,6 C 2,2 C 0,0 C 94 % 1031,4 hPa 0,0 l/m 0 min 0 min 0 W/m 22,5 km/h (4 Bft) 93,62 %
26.01.2022 19:18 2,6 C 2,2 C 0,0 C 93 % 1031,3 hPa 0,0 l/m 0 min 0 min 0 W/m 22,5 km/h (4 Bft) 97,87 %
26.01.2022 19:20 2,6 C 2,2 C 0,0 C 93 % 1031,3 hPa 0,0 l/m 0 min 0 min 0 W/m 32,2 km/h (5 Bft) 97,87 %
26.01.2022 19:22 2,6 C 2,2 C 0,0 C 93 % 1031,2 hPa 0,0 l/m 0 min 0 min 0 W/m 25,7 km/h (4 Bft) 97,83 %
26.01.2022 19:24 2,6 C 2,2 C 0,0 C 93 % 1031,2 hPa 0,0 l/m 0 min 0 min 0 W/m 12,9 km/h (3 Bft) 93,62 %
26.01.2022 19:26 2,6 C 2,2 C 0,0 C 93 % 1031,3 hPa 0,0 l/m 0 min 0 min 0 W/m 22,5 km/h (4 Bft) 97,87 %
26.01.2022 19:28 2,6 C 2,2 C 0,0 C 93 % 1031,4 hPa 0,0 l/m 0 min 0 min 0 W/m 16,1 km/h (3 Bft) 97,96 %
26.01.2022 19:30 2,6 C 2,2 C 0,0 C 93 % 1031,3 hPa 0,0 l/m 0 min 0 min 0 W/m 19,3 km/h (3 Bft) 100,00 %
26.01.2022 19:32 2,6 C 2,2 C 0,0 C 93 % 1031,3 hPa 0,0 l/m 0 min 0 min 0 W/m 16,1 km/h (3 Bft) 97,87 %
26.01.2022 19:34 2,6 C 2,2 C 0,0 C 93 % 1031,3 hPa 0,0 l/m 0 min 0 min 0 W/m 9,7 km/h (2 Bft) 100,00 %
26.01.2022 19:36 2,6 C 2,2 C 0,0 C 93 % 1031,3 hPa 0,0 l/m 0 min 0 min 0 W/m 16,1 km/h (3 Bft) 94,34 %
26.01.2022 19:38 2,6 C 2,2 C 0,0 C 93 % 1031,2 hPa 0,0 l/m 0 min 0 min 0 W/m 16,1 km/h (3 Bft) 95,74 %
26.01.2022 19:40 2,6 C 2,2 C 0,0 C 93 % 1031,2 hPa 0,0 l/m 0 min 0 min 0 W/m 9,7 km/h (2 Bft) 95,74 %
26.01.2022 19:42 2,6 C 2,2 C 0,0 C 93 % 1031,2 hPa 0,0 l/m 0 min 0 min 0 W/m 16,1 km/h (3 Bft) 95,74 %
26.01.2022 19:44 2,6 C 2,2 C 0,0 C 93 % 1031,3 hPa 0,0 l/m 0 min 0 min 0 W/m 12,9 km/h (3 Bft) 95,74 %
26.01.2022 19:46 2,6 C 2,2 C 0,0 C 93 % 1031,3 hPa 0,0 l/m 0 min 0 min 0 W/m 19,3 km/h (3 Bft) 95,92 %
26.01.2022 19:48 2,6 C 2,2 C 0,0 C 93 % 1031,3 hPa 0,0 l/m 0 min 0 min 0 W/m 12,9 km/h (3 Bft) 95,74 %
26.01.2022 19:50 2,6 C 2,2 C 0,0 C 93 % 1031,3 hPa 0,0 l/m 0 min 0 min 0 W/m 12,9 km/h (3 Bft) 54,55 %
26.01.2022 19:52 2,6 C 2,2 C 0,0 C 93 % 1031,3 hPa 0,0 l/m 0 min 0 min 0 W/m 19,3 km/h (3 Bft) 95,74 %
26.01.2022 19:54 2,6 C 2,2 C 0,0 C 93 % 1031,2 hPa 0,0 l/m 0 min 0 min 0 W/m 25,7 km/h (4 Bft) 95,74 %
26.01.2022 19:56 2,6 C 2,2 C 0,0 C 93 % 1031,2 hPa 0,0 l/m 0 min 0 min 0 W/m 29,0 km/h (5 Bft) 95,74 %
26.01.2022 19:58 2,6 C 2,2 C 0,0 C 93 % 1031,2 hPa 0,0 l/m 0 min 0 min 0 W/m 16,1 km/h (3 Bft) 95,65 %
26.01.2022 20:00 2,6 C 2,2 C 0,0 C 93 % 1031,2 hPa 0,0 l/m 0 min 0 min 0 W/m 16,1 km/h (3 Bft) 93,62 %
26.01.2022 20:02 2,6 C 2,2 C 0,0 C 93 % 1031,2 hPa 0,0 l/m 0 min 0 min 0 W/m 19,3 km/h (3 Bft) 93,62 %
26.01.2022 20:04 2,6 C 2,2 C 0,0 C 93 % 1031,1 hPa 0,0 l/m 0 min 0 min 0 W/m 16,1 km/h (3 Bft) 95,74 %
26.01.2022 20:06 2,6 C 2,2 C 0,0 C 93 % 1031,2 hPa 0,0 l/m 0 min 0 min 0 W/m 22,5 km/h (4 Bft) 95,74 %
26.01.2022 20:08 2,6 C 2,2 C 0,0 C 93 % 1031,1 hPa 0,0 l/m 0 min 0 min 0 W/m 16,1 km/h (3 Bft) 95,74 %
26.01.2022 20:10 2,6 C 2,2 C 0,0 C 93 % 1031,1 hPa 0,0 l/m 0 min 0 min 0 W/m 16,1 km/h (3 Bft) 95,65 %
26.01.2022 20:12 2,6 C 2,2 C 0,0 C 93 % 1031,1 hPa 0,0 l/m 0 min 0 min 0 W/m 16,1 km/h (3 Bft) 97,87 %
26.01.2022 20:14 2,6 C 2,2 C 0,0 C 93 % 1031,1 hPa 0,0 l/m 0 min 0 min 0 W/m 12,9 km/h (3 Bft) 97,87 %
26.01.2022 20:16 2,6 C 2,2 C 0,0 C 93 % 1031,0 hPa 0,0 l/m 0 min 0 min 0 W/m 19,3 km/h (3 Bft) 97,87 %
26.01.2022 20:18 2,6 C 2,2 C 0,0 C 93 % 1031,1 hPa 0,0 l/m 0 min 0 min 0 W/m 16,1 km/h (3 Bft) 97,87 %
26.01.2022 20:20 2,6 C 2,2 C 0,0 C 93 % 1031,1 hPa 0,0 l/m 0 min 0 min 0 W/m 12,9 km/h (3 Bft) 97,87 %
26.01.2022 20:22 2,6 C 2,2 C 0,0 C 93 % 1031,1 hPa 0,0 l/m 0 min 0 min 0 W/m 16,1 km/h (3 Bft) 97,83 %
26.01.2022 20:24 2,6 C 2,2 C 0,0 C 93 % 1031,1 hPa 0,0 l/m 0 min 0 min 0 W/m 16,1 km/h (3 Bft) 100,00 %
26.01.2022 20:26 2,6 C 2,2 C 0,0 C 93 % 1031,1 hPa 0,0 l/m 0 min 0 min 0 W/m 12,9 km/h (3 Bft) 97,87 %
26.01.2022 20:28 2,6 C 2,2 C 0,0 C 93 % 1031,1 hPa 0,0 l/m 0 min 0 min 0 W/m 12,9 km/h (3 Bft) 100,00 %
26.01.2022 20:30 2,6 C 2,2 C 0,0 C 93 % 1031,1 hPa 0,0 l/m 0 min 0 min 0 W/m 16,1 km/h (3 Bft) 100,00 %
26.01.2022 20:32 2,6 C 2,2 C 0,0 C 93 % 1031,2 hPa 0,0 l/m 0 min 0 min 0 W/m 19,3 km/h (3 Bft) 100,00 %
26.01.2022 20:34 2,6 C 2,2 C 0,0 C 93 % 1031,2 hPa 0,0 l/m 0 min 0 min 0 W/m 16,1 km/h (3 Bft) 100,00 %
26.01.2022 20:36 2,6 C 2,2 C 0,0 C 93 % 1031,2 hPa 0,0 l/m 0 min 0 min 0 W/m 12,9 km/h (3 Bft) 100,00 %
26.01.2022 20:38 2,6 C 2,2 C 0,0 C 93 % 1031,2 hPa 0,0 l/m 0 min 0 min 0 W/m 12,9 km/h (3 Bft) 100,00 %
26.01.2022 20:40 2,6 C 2,2 C 0,0 C 93 % 1031,2 hPa 0,0 l/m 0 min 0 min 0 W/m 22,5 km/h (4 Bft) 100,00 %
26.01.2022 20:42 2,6 C 2,2 C 0,0 C 93 % 1031,1 hPa 0,0 l/m 0 min 0 min 0 W/m 16,1 km/h (3 Bft) 97,87 %
26.01.2022 20:44 2,6 C 2,2 C 0,0 C 93 % 1031,1 hPa 0,0 l/m 0 min 0 min 0 W/m 22,5 km/h (4 Bft) 100,00 %
26.01.2022 20:46 2,6 C 2,2 C 0,0 C 92 % 1031,1 hPa 0,0 l/m 0 min 0 min 0 W/m 16,1 km/h (3 Bft) 100,00 %
26.01.2022 20:48 2,6 C 2,2 C 0,0 C 92 % 1031,0 hPa 0,0 l/m 0 min 0 min 0 W/m 16,1 km/h (3 Bft) 100,00 %
26.01.2022 20:50 2,6 C 2,2 C 0,0 C 92 % 1031,1 hPa 0,0 l/m 0 min 0 min 0 W/m 16,1 km/h (3 Bft) 100,00 %
26.01.2022 20:52 2,6 C 2,2 C 0,0 C 92 % 1031,1 hPa 0,0 l/m 0 min 0 min 0 W/m 16,1 km/h (3 Bft) 100,00 %
26.01.2022 20:54 2,6 C 2,2 C 0,0 C 92 % 1031,1 hPa 0,0 l/m 0 min 0 min 0 W/m 12,9 km/h (3 Bft) 100,00 %
26.01.2022 20:56 2,6 C 2,2 C 0,0 C 92 % 1031,1 hPa 0,0 l/m 0 min 0 min 0 W/m 19,3 km/h (3 Bft) 97,83 %
26.01.2022 20:58 2,6 C 2,2 C 0,0 C 92 % 1031,1 hPa 0,0 l/m 0 min 0 min 0 W/m 9,7 km/h (2 Bft) 100,00 %
26.01.2022 21:00 2,6 C 2,2 C 0,0 C 92 % 1031,0 hPa 0,0 l/m 0 min 0 min 0 W/m 29,0 km/h (5 Bft) 100,00 %
26.01.2022 21:02 2,6 C 2,2 C 0,0 C 92 % 1031,1 hPa 0,0 l/m 0 min 0 min 0 W/m 25,7 km/h (4 Bft) 97,87 %
26.01.2022 21:04 2,6 C 2,2 C 0,0 C 92 % 1031,0 hPa 0,0 l/m 0 min 0 min 0 W/m 22,5 km/h (4 Bft) 97,87 %
26.01.2022 21:06 2,6 C 2,2 C 0,0 C 92 % 1031,0 hPa 0,0 l/m 0 min 0 min 0 W/m 32,2 km/h (5 Bft) 97,87 %
26.01.2022 21:08 2,6 C 2,2 C 0,0 C 92 % 1030,9 hPa 0,0 l/m 0 min 0 min 0 W/m 16,1 km/h (3 Bft) 100,00 %
26.01.2022 21:10 2,6 C 2,2 C 0,0 C 92 % 1031,0 hPa 0,0 l/m 0 min 0 min 0 W/m 16,1 km/h (3 Bft) 100,00 %
26.01.2022 21:12 2,6 C 2,2 C 0,0 C 92 % 1031,0 hPa 0,0 l/m 0 min 0 min 0 W/m 16,1 km/h (3 Bft) 100,00 %
26.01.2022 21:14 2,6 C 2,2 C 0,0 C 92 % 1031,0 hPa 0,0 l/m 0 min 0 min 0 W/m 12,9 km/h (3 Bft) 100,00 %
26.01.2022 21:16 2,6 C 2,2 C 0,0 C 92 % 1030,9 hPa 0,0 l/m 0 min 0 min 0 W/m 22,5 km/h (4 Bft) 100,00 %
26.01.2022 21:18 2,6 C 2,2 C 0,0 C 92 % 1030,9 hPa 0,0 l/m 0 min 0 min 0 W/m 25,7 km/h (4 Bft) 97,87 %
26.01.2022 21:20 2,6 C 2,2 C 0,0 C 92 % 1030,8 hPa 0,0 l/m 0 min 0 min 0 W/m 19,3 km/h (3 Bft) 100,00 %
26.01.2022 21:22 2,6 C 2,2 C 0,0 C 92 % 1030,8 hPa 0,0 l/m 0 min 0 min 0 W/m 19,3 km/h (3 Bft) 100,00 %
26.01.2022 21:24 2,6 C 2,2 C 0,0 C 92 % 1030,8 hPa 0,0 l/m 0 min 0 min 0 W/m 22,5 km/h (4 Bft) 100,00 %
26.01.2022 21:26 2,6 C 2,2 C 0,0 C 92 % 1030,8 hPa 0,0 l/m 0 min 0 min 0 W/m 16,1 km/h (3 Bft) 100,00 %
26.01.2022 21:28 2,6 C 2,2 C 0,0 C 92 % 1030,8 hPa 0,0 l/m 0 min 0 min 0 W/m 16,1 km/h (3 Bft) 97,87 %
26.01.2022 21:30 2,6 C 2,2 C 0,0 C 92 % 1030,8 hPa 0,0 l/m 0 min 0 min 0 W/m 12,9 km/h (3 Bft) 100,00 %
26.01.2022 21:32 2,6 C 2,2 C 0,0 C 92 % 1030,8 hPa 0,0 l/m 0 min 0 min 0 W/m 12,9 km/h (3 Bft) 97,87 %
26.01.2022 21:34 2,7 C 2,2 C 0,0 C 92 % 1030,8 hPa 0,0 l/m 0 min 0 min 0 W/m 19,3 km/h (3 Bft) 97,87 %
26.01.2022 21:36 2,7 C 2,2 C 0,0 C 92 % 1030,8 hPa 0,0 l/m 0 min 0 min 0 W/m 19,3 km/h (3 Bft) 93,62 %
26.01.2022 21:38 2,6 C 2,2 C 0,0 C 92 % 1030,8 hPa 0,0 l/m 0 min 0 min 0 W/m 19,3 km/h (3 Bft) 97,83 %
26.01.2022 21:40 2,7 C 2,2 C 0,0 C 92 % 1030,8 hPa 0,0 l/m 0 min 0 min 0 W/m 16,1 km/h (3 Bft) 53,33 %
26.01.2022 21:42 2,7 C 2,2 C 0,0 C 92 % 1030,8 hPa 0,0 l/m 0 min 0 min 0 W/m 19,3 km/h (3 Bft) 95,74 %
26.01.2022 21:44 2,7 C 2,2 C 0,0 C 92 % 1030,8 hPa 0,0 l/m 0 min 0 min 0 W/m 19,3 km/h (3 Bft) 91,30 %
26.01.2022 21:46 2,7 C 2,2 C 0,0 C 92 % 1030,7 hPa 0,0 l/m 0 min 0 min 0 W/m 25,7 km/h (4 Bft) 95,74 %
26.01.2022 21:48 2,7 C 2,2 C 0,0 C 92 % 1030,7 hPa 0,0 l/m 0 min 0 min 0 W/m 22,5 km/h (4 Bft) 95,74 %
26.01.2022 21:50 2,7 C 2,2 C 0,0 C 92 % 1030,6 hPa 0,0 l/m 0 min 0 min 0 W/m 22,5 km/h (4 Bft) 93,62 %
26.01.2022 21:52 2,7 C 2,2 C 0,0 C 92 % 1030,6 hPa 0,0 l/m 0 min 0 min 0 W/m 22,5 km/h (4 Bft) 95,74 %
26.01.2022 21:54 2,7 C 2,2 C 0,0 C 92 % 1030,6 hPa 0,0 l/m 0 min 0 min 0 W/m 19,3 km/h (3 Bft) 95,74 %
26.01.2022 21:56 2,7 C 2,2 C 0,0 C 92 % 1030,6 hPa 0,0 l/m 0 min 0 min 0 W/m 32,2 km/h (5 Bft) 95,65 %
26.01.2022 21:58 2,7 C 2,2 C 0,0 C 92 % 1030,5 hPa 0,0 l/m 0 min 0 min 0 W/m 25,7 km/h (4 Bft) 95,74 %
26.01.2022 22:00 2,7 C 2,2 C 0,0 C 92 % 1030,4 hPa 0,0 l/m 0 min 0 min 0 W/m 19,3 km/h (3 Bft) 93,62 %
26.01.2022 22:02 2,7 C 2,2 C 0,0 C 91 % 1030,4 hPa 0,0 l/m 0 min 0 min 0 W/m 16,1 km/h (3 Bft) 93,62 %
26.01.2022 22:04 2,7 C 2,2 C 0,0 C 91 % 1030,4 hPa 0,0 l/m 0 min 0 min 0 W/m 19,3 km/h (3 Bft) 95,74 %
26.01.2022 22:06 2,7 C 2,2 C 0,0 C 91 % 1030,3 hPa 0,0 l/m 0 min 0 min 0 W/m 19,3 km/h (3 Bft) 97,87 %
26.01.2022 22:08 2,7 C 2,2 C 0,0 C 91 % 1030,3 hPa 0,0 l/m 0 min 0 min 0 W/m 22,5 km/h (4 Bft) 100,00 %
26.01.2022 22:10 2,7 C 2,2 C 0,0 C 91 % 1030,2 hPa 0,0 l/m 0 min 0 min 0 W/m 22,5 km/h (4 Bft) 95,74 %
26.01.2022 22:12 2,7 C 2,2 C 0,0 C 91 % 1030,2 hPa 0,0 l/m 0 min 0 min 0 W/m 22,5 km/h (4 Bft) 95,74 %
26.01.2022 22:14 2,7 C 2,2 C 0,0 C 91 % 1030,1 hPa 0,0 l/m 0 min 0 min 0 W/m 16,1 km/h (3 Bft) 97,87 %
26.01.2022 22:16 2,7 C 2,2 C 0,0 C 91 % 1030,1 hPa 0,0 l/m 0 min 0 min 0 W/m 22,5 km/h (4 Bft) 93,62 %
26.01.2022 22:18 2,7 C 2,2 C 0,0 C 91 % 1030,1 hPa 0,0 l/m 0 min 0 min 0 W/m 19,3 km/h (3 Bft) 93,62 %
26.01.2022 22:20 2,7 C 2,2 C 0,0 C 91 % 1030,1 hPa 0,0 l/m 0 min 0 min 0 W/m 22,5 km/h (4 Bft) 95,65 %
26.01.2022 22:22 2,7 C 2,2 C 0,0 C 91 % 1030,0 hPa 0,0 l/m 0 min 0 min 0 W/m 29,0 km/h (5 Bft) 95,74 %
26.01.2022 22:24 2,7 C 2,2 C 0,0 C 91 % 1030,1 hPa 0,0 l/m 0 min 0 min 0 W/m 16,1 km/h (3 Bft) 95,74 %
26.01.2022 22:26 2,7 C 2,2 C 0,0 C 91 % 1030,1 hPa 0,0 l/m 0 min 0 min 0 W/m 16,1 km/h (3 Bft) 95,74 %
26.01.2022 22:28 2,7 C 2,2 C 0,0 C 91 % 1030,1 hPa 0,0 l/m 0 min 0 min 0 W/m 25,7 km/h (4 Bft) 95,74 %
26.01.2022 22:30 2,7 C 2,2 C 0,0 C 91 % 1030,1 hPa 0,0 l/m 0 min 0 min 0 W/m 22,5 km/h (4 Bft) 95,74 %
26.01.2022 22:32 2,8 C 2,2 C 0,0 C 91 % 1030,1 hPa 0,0 l/m 0 min 0 min 0 W/m 22,5 km/h (4 Bft) 95,65 %
26.01.2022 22:34 2,8 C 2,2 C 0,0 C 91 % 1030,2 hPa 0,0 l/m 0 min 0 min 0 W/m 22,5 km/h (4 Bft) 95,74 %
26.01.2022 22:36 2,8 C 2,2 C 0,0 C 91 % 1030,2 hPa 0,0 l/m 0 min 0 min 0 W/m 25,7 km/h (4 Bft) 97,87 %
26.01.2022 22:38 2,8 C 2,2 C 0,0 C 91 % 1030,2 hPa 0,0 l/m 0 min 0 min 0 W/m 16,1 km/h (3 Bft) 97,87 %
26.01.2022 22:40 2,8 C 2,2 C 0,0 C 91 % 1030,1 hPa 0,0 l/m 0 min 0 min 0 W/m 19,3 km/h (3 Bft) 97,87 %
26.01.2022 22:42 2,8 C 2,2 C 0,0 C 92 % 1030,2 hPa 0,0 l/m 0 min 0 min 0 W/m 19,3 km/h (3 Bft) 95,65 %
26.01.2022 22:44 2,8 C 2,2 C 0,0 C 92 % 1030,1 hPa 0,0 l/m 0 min 0 min 0 W/m 19,3 km/h (3 Bft) 97,87 %
26.01.2022 22:46 2,8 C 2,2 C 0,0 C 92 % 1030,1 hPa 0,0 l/m 0 min 0 min 0 W/m 22,5 km/h (4 Bft) 97,87 %
26.01.2022 22:48 2,8 C 2,2 C 0,0 C 92 % 1030,1 hPa 0,0 l/m 0 min 0 min 0 W/m 22,5 km/h (4 Bft) 100,00 %
26.01.2022 22:50 2,9 C 2,2 C 0,0 C 92 % 1030,1 hPa 0,0 l/m 0 min 0 min 0 W/m 16,1 km/h (3 Bft) 100,00 %
26.01.2022 22:52 2,9 C 2,2 C 0,0 C 92 % 1030,1 hPa 0,0 l/m 0 min 0 min 0 W/m 16,1 km/h (3 Bft) 93,62 %
26.01.2022 22:54 2,9 C 2,2 C 0,0 C 92 % 1030,1 hPa 0,0 l/m 0 min 0 min 0 W/m 16,1 km/h (3 Bft) 97,83 %
26.01.2022 22:56 2,9 C 2,2 C 0,0 C 91 % 1030,1 hPa 0,0 l/m 0 min 0 min 0 W/m 19,3 km/h (3 Bft) 95,74 %
26.01.2022 22:58 2,9 C 2,8 C 0,0 C 91 % 1030,1 hPa 0,0 l/m 0 min 0 min 0 W/m 12,9 km/h (3 Bft) 95,74 %
26.01.2022 23:00 2,9 C 2,8 C 0,0 C 91 % 1030,1 hPa 0,0 l/m 0 min 0 min 0 W/m 16,1 km/h (3 Bft) 97,87 %
26.01.2022 23:02 2,9 C 2,8 C 0,0 C 91 % 1030,1 hPa 0,0 l/m 0 min 0 min 0 W/m 19,3 km/h (3 Bft) 100,00 %
26.01.2022 23:04 2,9 C 2,8 C 0,0 C 91 % 1030,1 hPa 0,0 l/m 0 min 0 min 0 W/m 19,3 km/h (3 Bft) 100,00 %
26.01.2022 23:06 2,9 C 2,8 C 0,0 C 91 % 1030,1 hPa 0,0 l/m 0 min 0 min 0 W/m 16,1 km/h (3 Bft) 100,00 %
26.01.2022 23:08 2,9 C 2,8 C 0,0 C 91 % 1030,0 hPa 0,0 l/m 0 min 0 min 0 W/m 19,3 km/h (3 Bft) 100,00 %
26.01.2022 23:10 2,9 C 2,8 C 0,0 C 91 % 1030,1 hPa 0,0 l/m 0 min 0 min 0 W/m 16,1 km/h (3 Bft) 100,00 %
26.01.2022 23:12 2,9 C 2,8 C 0,0 C 91 % 1030,1 hPa 0,0 l/m 0 min 0 min 0 W/m 19,3 km/h (3 Bft) 97,87 %
26.01.2022 23:14 3,0 C 2,8 C 0,0 C 91 % 1030,1 hPa 0,0 l/m 0 min 0 min 0 W/m 16,1 km/h (3 Bft) 97,87 %
26.01.2022 23:16 3,0 C 2,8 C 0,0 C 91 % 1030,1 hPa 0,0 l/m 0 min 0 min 0 W/m 9,7 km/h (2 Bft) 100,00 %
26.01.2022 23:18 3,0 C 2,8 C 0,0 C 91 % 1030,1 hPa 0,0 l/m 0 min 0 min 0 W/m 12,9 km/h (3 Bft) 97,83 %
26.01.2022 23:20 3,0 C 2,8 C 0,0 C 91 % 1030,2 hPa 0,0 l/m 0 min 0 min 0 W/m 12,9 km/h (3 Bft) 97,96 %
26.01.2022 23:22 3,0 C 2,8 C 0,0 C 91 % 1030,1 hPa 0,0 l/m 0 min 0 min 0 W/m 16,1 km/h (3 Bft) 100,00 %
26.01.2022 23:24 3,0 C 2,8 C 0,0 C 91 % 1030,1 hPa 0,0 l/m 0 min 0 min 0 W/m 16,1 km/h (3 Bft) 100,00 %
26.01.2022 23:26 3,0 C 2,8 C 0,0 C 91 % 1030,2 hPa 0,0 l/m 0 min 0 min 0 W/m 6,4 km/h (2 Bft) 100,00 %
26.01.2022 23:28 3,0 C 2,8 C 0,0 C 91 % 1030,1 hPa 0,0 l/m 0 min 0 min 0 W/m 29,0 km/h (5 Bft) 97,87 %
26.01.2022 23:30 3,0 C 2,8 C 0,0 C 91 % 1030,1 hPa 0,0 l/m 0 min 0 min 0 W/m 25,7 km/h (4 Bft) 55,56 %
26.01.2022 23:32 3,0 C 2,8 C 0,0 C 91 % 1030,1 hPa 0,0 l/m 0 min 0 min 0 W/m 16,1 km/h (3 Bft) 97,87 %
26.01.2022 23:34 3,1 C 2,8 C 0,0 C 91 % 1030,1 hPa 0,0 l/m 0 min 0 min 0 W/m 6,4 km/h (2 Bft) 97,87 %
26.01.2022 23:36 3,1 C 2,8 C 0,0 C 91 % 1030,1 hPa 0,0 l/m 0 min 0 min 0 W/m 16,1 km/h (3 Bft) 97,87 %
26.01.2022 23:38 3,1 C 2,8 C 0,0 C 91 % 1030,1 hPa 0,0 l/m 0 min 0 min 0 W/m 12,9 km/h (3 Bft) 97,87 %
26.01.2022 23:40 3,1 C 2,8 C 0,0 C 91 % 1030,2 hPa 0,0 l/m 0 min 0 min 0 W/m 19,3 km/h (3 Bft) 97,87 %
26.01.2022 23:42 3,1 C 2,8 C 0,0 C 91 % 1030,2 hPa 0,0 l/m 0 min 0 min 0 W/m 16,1 km/h (3 Bft) 97,83 %
26.01.2022 23:44 3,1 C 2,8 C 0,0 C 91 % 1030,1 hPa 0,0 l/m 0 min 0 min 0 W/m 9,7 km/h (2 Bft) 95,74 %
26.01.2022 23:46 3,1 C 2,8 C 0,0 C 91 % 1030,2 hPa 0,0 l/m 0 min 0 min 0 W/m 9,7 km/h (2 Bft) 97,87 %
26.01.2022 23:48 3,1 C 2,8 C 0,0 C 91 % 1030,1 hPa 0,0 l/m 0 min 0 min 0 W/m 19,3 km/h (3 Bft) 97,87 %
26.01.2022 23:50 3,1 C 2,8 C 0,0 C 91 % 1030,1 hPa 0,0 l/m 0 min 0 min 0 W/m 29,0 km/h (5 Bft) 97,87 %
26.01.2022 23:52 3,0 C 2,8 C 0,0 C 91 % 1030,2 hPa 0,0 l/m 0 min 0 min 0 W/m 19,3 km/h (3 Bft) 97,87 %
26.01.2022 23:54 3,0 C 2,8 C 0,0 C 91 % 1030,1 hPa 0,0 l/m 0 min 0 min 0 W/m 16,1 km/h (3 Bft) 97,83 %
26.01.2022 23:56 3,0 C 2,8 C 0,0 C 91 % 1030,1 hPa 0,0 l/m 0 min 0 min 0 W/m 16,1 km/h (3 Bft) 95,74 %
26.01.2022 23:58 3,0 C 2,8 C 0,0 C 91 % 1030,1 hPa 0,0 l/m 0 min 0 min 0 W/m 9,7 km/h (2 Bft) 97,87 %
_ Min-Zeit 07:08 04:26 05:22 00:00 22:22 - - - - 00:16 05:22
Minimum _ 1,9 C 1,7 C -1,1 C 86 % 1030,0 hPa - - - - 0,0 km/h (0 Bft) 47,37 %
_ Max-Zeit 23:34 13:58 13:22 12:38 00:40 00:00 00:00 00:00 13:44 18:20 00:00
Maximum _ 3,1 C 2,8 C 0,0 C 94 % 1033,7 hPa 0,0 l/m 0 min 0 min 61 W/m 35,4 km/h
S (5 Bft)
100,00 %
Durchschnitt _ 2,5 C 2,1 C -0,4 C 91 % 1032,3 hPa #0,0 l/m #0 min. #0 min. 28 W/m 11,2 km/h (2 Bft) 97,03 %
© 2022 W. Hausmann